<?xml version='1.0' encoding='UTF-8'?><gpx version="1.1" creator="JPX - https://github.com/jenetics/jpx" xmlns="http://www.topografix.com/GPX/1/1"><trk><trkseg><trkpt lat="45.2049701" lon="9.0914484"><ele>79.00000000000001</ele><time>2026-04-29T06:51:36.09Z</time></trkpt><trkpt lat="45.2049997" lon="9.0913455"><ele>79.0</ele><time>2026-04-29T06:51:43.101Z</time></trkpt><trkpt lat="45.2050149" lon="9.0912582"><ele>79.0</ele><time>2026-04-29T06:51:47.135Z</time></trkpt><trkpt lat="45.2050682" lon="9.091197"><ele>79.0</ele><time>2026-04-29T06:51:52.091Z</time></trkpt><trkpt lat="45.20512" lon="9.0911249"><ele>79.0</ele><time>2026-04-29T06:51:58.109Z</time></trkpt><trkpt lat="45.2051832" lon="9.0910819"><ele>79.00000000000001</ele><time>2026-04-29T06:52:04.085Z</time></trkpt><trkpt lat="45.2052274" lon="9.0910123"><ele>79.0</ele><time>2026-04-29T06:52:10.093Z</time></trkpt><trkpt lat="45.2052654" lon="9.0909338"><ele>79.00000000000001</ele><time>2026-04-29T06:52:20.09Z</time></trkpt><trkpt lat="45.2053161" lon="9.0908643"><ele>79.0</ele><time>2026-04-29T06:52:28.045Z</time></trkpt><trkpt lat="45.2053563" lon="9.0907853"><ele>79.0</ele><time>2026-04-29T06:52:35.09Z</time></trkpt><trkpt lat="45.2053941" lon="9.0907049"><ele>79.0</ele><time>2026-04-29T06:52:41.106Z</time></trkpt><trkpt lat="45.2054469" lon="9.0906511"><ele>79.0</ele><time>2026-04-29T06:52:46.09Z</time></trkpt><trkpt lat="45.2054837" lon="9.0905786"><ele>79.00000000000001</ele><time>2026-04-29T06:52:51.091Z</time></trkpt><trkpt lat="45.2055334" lon="9.0904941"><ele>79.0</ele><time>2026-04-29T06:52:59.128Z</time></trkpt><trkpt lat="45.2055371" lon="9.0903979"><ele>79.00000000000001</ele><time>2026-04-29T06:53:05.99Z</time></trkpt><trkpt lat="45.2055201" lon="9.0903054"><ele>79.0</ele><time>2026-04-29T06:53:12.11Z</time></trkpt><trkpt lat="45.2054795" lon="9.0902142"><ele>79.0</ele><time>2026-04-29T06:53:18.127Z</time></trkpt><trkpt lat="45.2054331" lon="9.0901377"><ele>79.0</ele><time>2026-04-29T06:53:24.103Z</time></trkpt><trkpt lat="45.2053845" lon="9.0900584"><ele>79.0</ele><time>2026-04-29T06:53:30.09Z</time></trkpt><trkpt lat="45.2053334" lon="9.0900025"><ele>79.00000000000001</ele><time>2026-04-29T06:53:35.09Z</time></trkpt><trkpt lat="45.2052718" lon="9.0899558"><ele>79.0</ele><time>2026-04-29T06:53:41.126Z</time></trkpt><trkpt lat="45.2052146" lon="9.0899004"><ele>78.14285714285715</ele><time>2026-04-29T06:53:47.949Z</time></trkpt><trkpt lat="45.2051588" lon="9.0898492"><ele>77.28571428571429</ele><time>2026-04-29T06:53:55.128Z</time></trkpt><trkpt lat="45.2050924" lon="9.0898164"><ele>76.42857142857143</ele><time>2026-04-29T06:54:02.011Z</time></trkpt><trkpt lat="45.2050382" lon="9.0897679"><ele>75.57142857142858</ele><time>2026-04-29T06:54:07.117Z</time></trkpt><trkpt lat="45.2049844" lon="9.089694"><ele>74.71428571428572</ele><time>2026-04-29T06:54:13.168Z</time></trkpt><trkpt lat="45.2049406" lon="9.0896212"><ele>73.85714285714286</ele><time>2026-04-29T06:54:19.107Z</time></trkpt><trkpt lat="45.2049018" lon="9.0895426"><ele>73.0</ele><time>2026-04-29T06:54:25.09Z</time></trkpt><trkpt lat="45.2048631" lon="9.0894709"><ele>73.71428571428571</ele><time>2026-04-29T06:54:31.097Z</time></trkpt><trkpt lat="45.204824" lon="9.089398"><ele>74.42857142857143</ele><time>2026-04-29T06:54:37.089Z</time></trkpt><trkpt lat="45.2047717" lon="9.0893349"><ele>75.14285714285714</ele><time>2026-04-29T06:54:43.09Z</time></trkpt><trkpt lat="45.2047259" lon="9.0892672"><ele>75.85714285714286</ele><time>2026-04-29T06:54:49.07Z</time></trkpt><trkpt lat="45.2046794" lon="9.0891986"><ele>76.57142857142857</ele><time>2026-04-29T06:54:55.089Z</time></trkpt><trkpt lat="45.2046309" lon="9.0891385"><ele>77.28571428571429</ele><time>2026-04-29T06:55:01.125Z</time></trkpt><trkpt lat="45.2045833" lon="9.0890733"><ele>78.0</ele><time>2026-04-29T06:55:07.153Z</time></trkpt><trkpt lat="45.2045318" lon="9.0890049"><ele>76.0</ele><time>2026-04-29T06:55:13.114Z</time></trkpt><trkpt lat="45.2044736" lon="9.0889612"><ele>74.0</ele><time>2026-04-29T06:55:19.164Z</time></trkpt><trkpt lat="45.2044155" lon="9.0889161"><ele>72.0</ele><time>2026-04-29T06:55:26.113Z</time></trkpt><trkpt lat="45.2043502" lon="9.0888731"><ele>70.0</ele><time>2026-04-29T06:55:33.09Z</time></trkpt><trkpt lat="45.2042877" lon="9.0888331"><ele>68.0</ele><time>2026-04-29T06:55:39.071Z</time></trkpt><trkpt lat="45.2042244" lon="9.0887823"><ele>66.0</ele><time>2026-04-29T06:55:45.09Z</time></trkpt><trkpt lat="45.2041636" lon="9.0887451"><ele>64.0</ele><time>2026-04-29T06:55:51.048Z</time></trkpt><trkpt lat="45.2040994" lon="9.0886884"><ele>64.0</ele><time>2026-04-29T06:55:57.147Z</time></trkpt><trkpt lat="45.2040458" lon="9.0886216"><ele>63.99999999999999</ele><time>2026-04-29T06:56:03.024Z</time></trkpt><trkpt lat="45.2039845" lon="9.0885633"><ele>64.0</ele><time>2026-04-29T06:56:09.129Z</time></trkpt><trkpt lat="45.2039294" lon="9.0885153"><ele>64.0</ele><time>2026-04-29T06:56:14.064Z</time></trkpt><trkpt lat="45.2038695" lon="9.0884633"><ele>63.99999999999999</ele><time>2026-04-29T06:56:20.089Z</time></trkpt><trkpt lat="45.2038199" lon="9.0883999"><ele>64.0</ele><time>2026-04-29T06:56:29.089Z</time></trkpt><trkpt lat="45.2037822" lon="9.0882932"><ele>64.0</ele><time>2026-04-29T06:56:35.164Z</time></trkpt><trkpt lat="45.203744" lon="9.0882086"><ele>63.285714285714285</ele><time>2026-04-29T06:56:40.124Z</time></trkpt><trkpt lat="45.2037044" lon="9.0881204"><ele>62.57142857142857</ele><time>2026-04-29T06:56:46.09Z</time></trkpt><trkpt lat="45.2036757" lon="9.0880378"><ele>61.857142857142854</ele><time>2026-04-29T06:56:51.125Z</time></trkpt><trkpt lat="45.2036483" lon="9.0879554"><ele>61.14285714285714</ele><time>2026-04-29T06:56:56.146Z</time></trkpt><trkpt lat="45.203611" lon="9.0878625"><ele>60.42857142857143</ele><time>2026-04-29T06:57:02.101Z</time></trkpt><trkpt lat="45.2035845" lon="9.0877692"><ele>59.71428571428571</ele><time>2026-04-29T06:57:08.152Z</time></trkpt><trkpt lat="45.2035587" lon="9.087677"><ele>59.0</ele><time>2026-04-29T06:57:14.09Z</time></trkpt><trkpt lat="45.2035287" lon="9.0875856"><ele>59.0</ele><time>2026-04-29T06:57:20.068Z</time></trkpt><trkpt lat="45.2034961" lon="9.0874964"><ele>59.0</ele><time>2026-04-29T06:57:26.09Z</time></trkpt><trkpt lat="45.2034656" lon="9.0874043"><ele>59.0</ele><time>2026-04-29T06:57:32.172Z</time></trkpt><trkpt lat="45.2034353" lon="9.0873222"><ele>59.0</ele><time>2026-04-29T06:57:38.089Z</time></trkpt><trkpt lat="45.2034032" lon="9.0872352"><ele>59.0</ele><time>2026-04-29T06:57:44.099Z</time></trkpt><trkpt lat="45.2033681" lon="9.0871503"><ele>59.0</ele><time>2026-04-29T06:57:50.149Z</time></trkpt><trkpt lat="45.2033395" lon="9.0870615"><ele>59.0</ele><time>2026-04-29T06:57:56.09Z</time></trkpt><trkpt lat="45.2033078" lon="9.0869749"><ele>58.857142857142854</ele><time>2026-04-29T06:58:02.132Z</time></trkpt><trkpt lat="45.2032802" lon="9.0868917"><ele>58.71428571428572</ele><time>2026-04-29T06:58:08.089Z</time></trkpt><trkpt lat="45.2032509" lon="9.086794"><ele>58.57142857142858</ele><time>2026-04-29T06:58:14.089Z</time></trkpt><trkpt lat="45.2032306" lon="9.0867062"><ele>58.42857142857143</ele><time>2026-04-29T06:58:20.089Z</time></trkpt><trkpt lat="45.2031969" lon="9.0866191"><ele>58.28571428571429</ele><time>2026-04-29T06:58:26.097Z</time></trkpt><trkpt lat="45.2031716" lon="9.086529"><ele>58.14285714285715</ele><time>2026-04-29T06:58:32.09Z</time></trkpt><trkpt lat="45.2031456" lon="9.0864427"><ele>58.00000000000001</ele><time>2026-04-29T06:58:38.09Z</time></trkpt><trkpt lat="45.2031202" lon="9.0863542"><ele>58.00000000000001</ele><time>2026-04-29T06:58:44.129Z</time></trkpt><trkpt lat="45.2030899" lon="9.0862628"><ele>58.0</ele><time>2026-04-29T06:58:50.089Z</time></trkpt><trkpt lat="45.2030726" lon="9.0861676"><ele>58.00000000000001</ele><time>2026-04-29T06:58:56.115Z</time></trkpt><trkpt lat="45.2030609" lon="9.0860699"><ele>58.00000000000001</ele><time>2026-04-29T06:59:03.089Z</time></trkpt><trkpt lat="45.2030455" lon="9.0859747"><ele>58.0</ele><time>2026-04-29T06:59:10.147Z</time></trkpt><trkpt lat="45.2030477" lon="9.0858751"><ele>58.00000000000001</ele><time>2026-04-29T06:59:17.175Z</time></trkpt><trkpt lat="45.2030296" lon="9.0857813"><ele>58.00000000000001</ele><time>2026-04-29T06:59:23.113Z</time></trkpt><trkpt lat="45.2030203" lon="9.0856801"><ele>58.00000000000001</ele><time>2026-04-29T06:59:30.089Z</time></trkpt><trkpt lat="45.2030111" lon="9.0855805"><ele>58.0</ele><time>2026-04-29T06:59:36.03Z</time></trkpt><trkpt lat="45.2030126" lon="9.085473"><ele>58.00000000000001</ele><time>2026-04-29T06:59:42.085Z</time></trkpt><trkpt lat="45.2030092" lon="9.0853782"><ele>58.00000000000001</ele><time>2026-04-29T06:59:48.096Z</time></trkpt><trkpt lat="45.2029993" lon="9.0852785"><ele>58.0</ele><time>2026-04-29T06:59:54.103Z</time></trkpt><trkpt lat="45.2029959" lon="9.0851822"><ele>58.00000000000001</ele><time>2026-04-29T07:00:00.089Z</time></trkpt><trkpt lat="45.2029891" lon="9.0850862"><ele>58.00000000000001</ele><time>2026-04-29T07:00:06.13Z</time></trkpt><trkpt lat="45.2029822" lon="9.0849906"><ele>58.00000000000001</ele><time>2026-04-29T07:00:12.089Z</time></trkpt><trkpt lat="45.2029803" lon="9.0848916"><ele>58.0</ele><time>2026-04-29T07:00:18.117Z</time></trkpt><trkpt lat="45.2029756" lon="9.084799"><ele>58.00000000000001</ele><time>2026-04-29T07:00:24.089Z</time></trkpt><trkpt lat="45.2029634" lon="9.0847034"><ele>58.00000000000001</ele><time>2026-04-29T07:00:30.107Z</time></trkpt><trkpt lat="45.2029622" lon="9.0846082"><ele>58.0</ele><time>2026-04-29T07:00:36.109Z</time></trkpt><trkpt lat="45.2029526" lon="9.084513"><ele>58.00000000000001</ele><time>2026-04-29T07:00:42.096Z</time></trkpt><trkpt lat="45.2029548" lon="9.0844104"><ele>58.00000000000001</ele><time>2026-04-29T07:00:49.153Z</time></trkpt><trkpt lat="45.2029542" lon="9.084313"><ele>58.00000000000001</ele><time>2026-04-29T07:00:55.094Z</time></trkpt><trkpt lat="45.2029485" lon="9.0842223"><ele>58.0</ele><time>2026-04-29T07:01:01.167Z</time></trkpt><trkpt lat="45.2029441" lon="9.0841278"><ele>58.00000000000001</ele><time>2026-04-29T07:01:07.09Z</time></trkpt><trkpt lat="45.2029369" lon="9.0840262"><ele>58.00000000000001</ele><time>2026-04-29T07:01:13.135Z</time></trkpt><trkpt lat="45.2029351" lon="9.0839301"><ele>58.0</ele><time>2026-04-29T07:01:19.089Z</time></trkpt><trkpt lat="45.2029279" lon="9.0838326"><ele>58.00000000000001</ele><time>2026-04-29T07:01:25.124Z</time></trkpt><trkpt lat="45.2029216" lon="9.0837319"><ele>58.00000000000001</ele><time>2026-04-29T07:01:31.084Z</time></trkpt><trkpt lat="45.2029189" lon="9.0836333"><ele>58.14285714285715</ele><time>2026-04-29T07:01:37.112Z</time></trkpt><trkpt lat="45.2029206" lon="9.0835417"><ele>58.28571428571429</ele><time>2026-04-29T07:01:43.089Z</time></trkpt><trkpt lat="45.2029204" lon="9.0834377"><ele>58.42857142857143</ele><time>2026-04-29T07:01:49.064Z</time></trkpt><trkpt lat="45.2029104" lon="9.0833356"><ele>58.57142857142858</ele><time>2026-04-29T07:01:56.088Z</time></trkpt><trkpt lat="45.2028966" lon="9.0832418"><ele>58.71428571428572</ele><time>2026-04-29T07:02:02.092Z</time></trkpt><trkpt lat="45.202895" lon="9.0831444"><ele>58.857142857142854</ele><time>2026-04-29T07:02:10.088Z</time></trkpt><trkpt lat="45.2028309" lon="9.0831101"><ele>59.0</ele><time>2026-04-29T07:02:17.067Z</time></trkpt><trkpt lat="45.202764" lon="9.0830648"><ele>59.0</ele><time>2026-04-29T07:02:24.061Z</time></trkpt><trkpt lat="45.2026913" lon="9.0830421"><ele>59.0</ele><time>2026-04-29T07:02:31.106Z</time></trkpt><trkpt lat="45.2026196" lon="9.0830268"><ele>59.0</ele><time>2026-04-29T07:02:38.088Z</time></trkpt><trkpt lat="45.2025479" lon="9.0830081"><ele>59.0</ele><time>2026-04-29T07:02:44.106Z</time></trkpt><trkpt lat="45.2024764" lon="9.0829924"><ele>59.0</ele><time>2026-04-29T07:02:56.094Z</time></trkpt><trkpt lat="45.2024135" lon="9.0829668"><ele>59.0</ele><time>2026-04-29T07:03:02.143Z</time></trkpt><trkpt lat="45.2023469" lon="9.0829442"><ele>59.0</ele><time>2026-04-29T07:03:08.009Z</time></trkpt><trkpt lat="45.2022858" lon="9.0829217"><ele>59.0</ele><time>2026-04-29T07:03:14.131Z</time></trkpt><trkpt lat="45.2022185" lon="9.0829014"><ele>59.0</ele><time>2026-04-29T07:03:20.146Z</time></trkpt><trkpt lat="45.2021533" lon="9.0828831"><ele>59.0</ele><time>2026-04-29T07:03:26.118Z</time></trkpt><trkpt lat="45.2020878" lon="9.0828703"><ele>59.0</ele><time>2026-04-29T07:03:32.143Z</time></trkpt><trkpt lat="45.202023" lon="9.0828482"><ele>59.0</ele><time>2026-04-29T07:03:38.106Z</time></trkpt><trkpt lat="45.2019536" lon="9.0828297"><ele>59.0</ele><time>2026-04-29T07:03:44.089Z</time></trkpt><trkpt lat="45.2018906" lon="9.0828102"><ele>59.0</ele><time>2026-04-29T07:03:50.025Z</time></trkpt><trkpt lat="45.2018211" lon="9.0827894"><ele>59.0</ele><time>2026-04-29T07:03:56.139Z</time></trkpt><trkpt lat="45.2017525" lon="9.0827591"><ele>59.0</ele><time>2026-04-29T07:04:02.088Z</time></trkpt><trkpt lat="45.2016899" lon="9.0827416"><ele>59.0</ele><time>2026-04-29T07:04:08.125Z</time></trkpt><trkpt lat="45.2016199" lon="9.082726"><ele>59.0</ele><time>2026-04-29T07:04:15.088Z</time></trkpt><trkpt lat="45.2015525" lon="9.0827174"><ele>59.0</ele><time>2026-04-29T07:04:21.117Z</time></trkpt><trkpt lat="45.2014887" lon="9.0827025"><ele>59.0</ele><time>2026-04-29T07:04:27.071Z</time></trkpt><trkpt lat="45.2014248" lon="9.0826807"><ele>59.0</ele><time>2026-04-29T07:04:33.104Z</time></trkpt><trkpt lat="45.2013544" lon="9.082657"><ele>59.285714285714285</ele><time>2026-04-29T07:04:40.089Z</time></trkpt><trkpt lat="45.2012873" lon="9.0826397"><ele>59.57142857142857</ele><time>2026-04-29T07:04:46.101Z</time></trkpt><trkpt lat="45.2012151" lon="9.0826155"><ele>59.857142857142854</ele><time>2026-04-29T07:04:53.089Z</time></trkpt><trkpt lat="45.2011526" lon="9.0825896"><ele>60.14285714285714</ele><time>2026-04-29T07:04:59.092Z</time></trkpt><trkpt lat="45.2010893" lon="9.0825715"><ele>60.42857142857143</ele><time>2026-04-29T07:05:05.141Z</time></trkpt><trkpt lat="45.2010215" lon="9.0825532"><ele>60.71428571428571</ele><time>2026-04-29T07:05:12.089Z</time></trkpt><trkpt lat="45.2009602" lon="9.0825306"><ele>60.99999999999999</ele><time>2026-04-29T07:05:16.119Z</time></trkpt><trkpt lat="45.2008924" lon="9.0824973"><ele>60.99999999999999</ele><time>2026-04-29T07:05:20.088Z</time></trkpt><trkpt lat="45.2008295" lon="9.0824679"><ele>61.0</ele><time>2026-04-29T07:05:26.089Z</time></trkpt><trkpt lat="45.2007568" lon="9.0824639"><ele>60.99999999999999</ele><time>2026-04-29T07:05:32.138Z</time></trkpt><trkpt lat="45.2006935" lon="9.0824468"><ele>60.99999999999999</ele><time>2026-04-29T07:05:38.089Z</time></trkpt><trkpt lat="45.2006247" lon="9.0824255"><ele>61.0</ele><time>2026-04-29T07:05:44.127Z</time></trkpt><trkpt lat="45.2005523" lon="9.0824225"><ele>60.99999999999999</ele><time>2026-04-29T07:05:56.118Z</time></trkpt><trkpt lat="45.2004794" lon="9.0824108"><ele>60.99999999999999</ele><time>2026-04-29T07:06:03.088Z</time></trkpt><trkpt lat="45.2004139" lon="9.0824018"><ele>61.71428571428571</ele><time>2026-04-29T07:06:09.146Z</time></trkpt><trkpt lat="45.2003508" lon="9.0823952"><ele>62.42857142857143</ele><time>2026-04-29T07:06:16.089Z</time></trkpt><trkpt lat="45.2002852" lon="9.0823719"><ele>63.14285714285714</ele><time>2026-04-29T07:06:23.114Z</time></trkpt><trkpt lat="45.2002171" lon="9.0823511"><ele>63.857142857142854</ele><time>2026-04-29T07:06:30.088Z</time></trkpt><trkpt lat="45.2001518" lon="9.0823212"><ele>64.57142857142857</ele><time>2026-04-29T07:06:36.028Z</time></trkpt><trkpt lat="45.2000874" lon="9.0822787"><ele>65.28571428571428</ele><time>2026-04-29T07:06:42.025Z</time></trkpt><trkpt lat="45.2000296" lon="9.0822386"><ele>66.0</ele><time>2026-04-29T07:06:48.093Z</time></trkpt><trkpt lat="45.1999737" lon="9.0821955"><ele>66.0</ele><time>2026-04-29T07:06:54.041Z</time></trkpt><trkpt lat="45.1999095" lon="9.0821544"><ele>66.0</ele><time>2026-04-29T07:07:00.064Z</time></trkpt><trkpt lat="45.1998464" lon="9.0821232"><ele>66.0</ele><time>2026-04-29T07:07:07.128Z</time></trkpt><trkpt lat="45.1997803" lon="9.0820901"><ele>66.0</ele><time>2026-04-29T07:07:14.088Z</time></trkpt><trkpt lat="45.199723" lon="9.0820452"><ele>66.0</ele><time>2026-04-29T07:07:20.12Z</time></trkpt><trkpt lat="45.1996584" lon="9.0820129"><ele>66.0</ele><time>2026-04-29T07:07:25.966Z</time></trkpt><trkpt lat="45.1995936" lon="9.0819644"><ele>66.0</ele><time>2026-04-29T07:07:32.047Z</time></trkpt><trkpt lat="45.1995257" lon="9.0819271"><ele>66.0</ele><time>2026-04-29T07:07:38.088Z</time></trkpt><trkpt lat="45.1994628" lon="9.0818914"><ele>66.0</ele><time>2026-04-29T07:07:44.089Z</time></trkpt><trkpt lat="45.1994067" lon="9.0818479"><ele>66.0</ele><time>2026-04-29T07:07:50.127Z</time></trkpt><trkpt lat="45.1993481" lon="9.0818108"><ele>66.0</ele><time>2026-04-29T07:07:56.088Z</time></trkpt><trkpt lat="45.1992858" lon="9.081771"><ele>66.0</ele><time>2026-04-29T07:08:02.062Z</time></trkpt><trkpt lat="45.1992258" lon="9.0817347"><ele>66.0</ele><time>2026-04-29T07:08:08.089Z</time></trkpt><trkpt lat="45.1991644" lon="9.081699"><ele>66.0</ele><time>2026-04-29T07:08:14.088Z</time></trkpt><trkpt lat="45.199108" lon="9.0816432"><ele>66.0</ele><time>2026-04-29T07:08:20.129Z</time></trkpt><trkpt lat="45.1990408" lon="9.0816133"><ele>66.0</ele><time>2026-04-29T07:08:27.089Z</time></trkpt><trkpt lat="45.1989749" lon="9.0815833"><ele>66.0</ele><time>2026-04-29T07:08:34.129Z</time></trkpt><trkpt lat="45.1989146" lon="9.0815558"><ele>66.0</ele><time>2026-04-29T07:08:40.089Z</time></trkpt><trkpt lat="45.1988595" lon="9.0814959"><ele>66.0</ele><time>2026-04-29T07:08:46.118Z</time></trkpt><trkpt lat="45.1987883" lon="9.0814786"><ele>66.0</ele><time>2026-04-29T07:08:53.089Z</time></trkpt><trkpt lat="45.1987253" lon="9.0814421"><ele>66.0</ele><time>2026-04-29T07:09:00.041Z</time></trkpt><trkpt lat="45.1986562" lon="9.081403"><ele>66.14285714285714</ele><time>2026-04-29T07:09:07.107Z</time></trkpt><trkpt lat="45.1985979" lon="9.0813477"><ele>66.28571428571429</ele><time>2026-04-29T07:09:15.136Z</time></trkpt><trkpt lat="45.1985336" lon="9.0813101"><ele>66.42857142857143</ele><time>2026-04-29T07:09:22.087Z</time></trkpt><trkpt lat="45.1984784" lon="9.0812629"><ele>66.57142857142857</ele><time>2026-04-29T07:09:28.088Z</time></trkpt><trkpt lat="45.1984104" lon="9.0812206"><ele>66.71428571428571</ele><time>2026-04-29T07:09:35.127Z</time></trkpt><trkpt lat="45.1983406" lon="9.0811922"><ele>66.85714285714286</ele><time>2026-04-29T07:09:41.119Z</time></trkpt><trkpt lat="45.1982817" lon="9.0811329"><ele>67.0</ele><time>2026-04-29T07:09:48.087Z</time></trkpt><trkpt lat="45.1982217" lon="9.0810937"><ele>67.0</ele><time>2026-04-29T07:09:54.11Z</time></trkpt><trkpt lat="45.1981683" lon="9.0810407"><ele>67.0</ele><time>2026-04-29T07:10:00.082Z</time></trkpt><trkpt lat="45.198105" lon="9.0810194"><ele>67.0</ele><time>2026-04-29T07:10:07.099Z</time></trkpt><trkpt lat="45.1980429" lon="9.0809871"><ele>67.0</ele><time>2026-04-29T07:10:14.087Z</time></trkpt><trkpt lat="45.1979831" lon="9.0809494"><ele>67.0</ele><time>2026-04-29T07:10:22.107Z</time></trkpt><trkpt lat="45.1979139" lon="9.0809189"><ele>67.0</ele><time>2026-04-29T07:10:30.088Z</time></trkpt><trkpt lat="45.1978517" lon="9.0808798"><ele>67.0</ele><time>2026-04-29T07:10:38.12Z</time></trkpt><trkpt lat="45.1977918" lon="9.08084"><ele>66.57142857142857</ele><time>2026-04-29T07:10:44.088Z</time></trkpt><trkpt lat="45.197733" lon="9.080798"><ele>66.14285714285714</ele><time>2026-04-29T07:10:50.048Z</time></trkpt><trkpt lat="45.1976589" lon="9.0807778"><ele>65.71428571428571</ele><time>2026-04-29T07:10:56.153Z</time></trkpt><trkpt lat="45.1975985" lon="9.0807319"><ele>65.28571428571428</ele><time>2026-04-29T07:11:02.09Z</time></trkpt><trkpt lat="45.1975311" lon="9.0806957"><ele>64.85714285714285</ele><time>2026-04-29T07:11:08.087Z</time></trkpt><trkpt lat="45.1974636" lon="9.080649"><ele>64.42857142857143</ele><time>2026-04-29T07:11:14.087Z</time></trkpt><trkpt lat="45.1974048" lon="9.0806127"><ele>64.0</ele><time>2026-04-29T07:11:19.115Z</time></trkpt><trkpt lat="45.1973308" lon="9.0805723"><ele>63.57142857142857</ele><time>2026-04-29T07:11:25.087Z</time></trkpt><trkpt lat="45.1972697" lon="9.0805494"><ele>63.14285714285714</ele><time>2026-04-29T07:11:31.1Z</time></trkpt><trkpt lat="45.197204" lon="9.0805358"><ele>62.71428571428571</ele><time>2026-04-29T07:11:38.067Z</time></trkpt><trkpt lat="45.1971446" lon="9.0805847"><ele>62.28571428571428</ele><time>2026-04-29T07:11:46.113Z</time></trkpt><trkpt lat="45.1970881" lon="9.0806508"><ele>61.857142857142854</ele><time>2026-04-29T07:11:54.088Z</time></trkpt><trkpt lat="45.1970284" lon="9.0807072"><ele>61.428571428571416</ele><time>2026-04-29T07:12:02.087Z</time></trkpt><trkpt lat="45.1969634" lon="9.0807463"><ele>60.99999999999999</ele><time>2026-04-29T07:12:09.087Z</time></trkpt><trkpt lat="45.1968871" lon="9.0807469"><ele>60.99999999999999</ele><time>2026-04-29T07:12:16.087Z</time></trkpt><trkpt lat="45.1968262" lon="9.0807113"><ele>61.0</ele><time>2026-04-29T07:12:22.088Z</time></trkpt><trkpt lat="45.1967742" lon="9.08064"><ele>60.99999999999999</ele><time>2026-04-29T07:12:28.124Z</time></trkpt><trkpt lat="45.1967306" lon="9.0805704"><ele>60.99999999999999</ele><time>2026-04-29T07:12:34.087Z</time></trkpt><trkpt lat="45.1966901" lon="9.0805017"><ele>61.0</ele><time>2026-04-29T07:12:40.113Z</time></trkpt><trkpt lat="45.1966427" lon="9.0804427"><ele>60.99999999999999</ele><time>2026-04-29T07:12:46.088Z</time></trkpt><trkpt lat="45.1965897" lon="9.0803897"><ele>60.99999999999999</ele><time>2026-04-29T07:12:52.067Z</time></trkpt><trkpt lat="45.1965378" lon="9.0803382"><ele>60.99999999999999</ele><time>2026-04-29T07:12:58.087Z</time></trkpt><trkpt lat="45.1965054" lon="9.0802603"><ele>61.0</ele><time>2026-04-29T07:13:04.091Z</time></trkpt><trkpt lat="45.1964419" lon="9.0802465"><ele>60.99999999999999</ele><time>2026-04-29T07:13:32.098Z</time></trkpt><trkpt lat="45.1963833" lon="9.0803041"><ele>60.99999999999999</ele><time>2026-04-29T07:13:38.129Z</time></trkpt><trkpt lat="45.1963364" lon="9.0803693"><ele>61.0</ele><time>2026-04-29T07:13:44.088Z</time></trkpt><trkpt lat="45.1962985" lon="9.0804437"><ele>60.99999999999999</ele><time>2026-04-29T07:13:50.088Z</time></trkpt><trkpt lat="45.1962636" lon="9.0805231"><ele>60.99999999999999</ele><time>2026-04-29T07:13:56.087Z</time></trkpt><trkpt lat="45.1962241" lon="9.0806108"><ele>60.99999999999999</ele><time>2026-04-29T07:14:08.088Z</time></trkpt><trkpt lat="45.1961762" lon="9.0806722"><ele>61.0</ele><time>2026-04-29T07:14:14.114Z</time></trkpt><trkpt lat="45.1961265" lon="9.0807347"><ele>60.99999999999999</ele><time>2026-04-29T07:14:20.13Z</time></trkpt><trkpt lat="45.19607" lon="9.0807816"><ele>60.99999999999999</ele><time>2026-04-29T07:14:26.099Z</time></trkpt><trkpt lat="45.1960148" lon="9.0808358"><ele>61.0</ele><time>2026-04-29T07:14:32.087Z</time></trkpt><trkpt lat="45.1959646" lon="9.0808901"><ele>60.99999999999999</ele><time>2026-04-29T07:14:38.087Z</time></trkpt><trkpt lat="45.1959185" lon="9.0809581"><ele>60.99999999999999</ele><time>2026-04-29T07:14:45.143Z</time></trkpt><trkpt lat="45.1958586" lon="9.0810437"><ele>60.99999999999999</ele><time>2026-04-29T07:14:55.088Z</time></trkpt><trkpt lat="45.1958066" lon="9.0811063"><ele>61.0</ele><time>2026-04-29T07:14:58.087Z</time></trkpt><trkpt lat="45.1957348" lon="9.0811975"><ele>60.99999999999999</ele><time>2026-04-29T07:15:11.088Z</time></trkpt><trkpt lat="45.1956954" lon="9.0812719"><ele>60.99999999999999</ele><time>2026-04-29T07:15:17.087Z</time></trkpt><trkpt lat="45.1956543" lon="9.0813464"><ele>61.0</ele><time>2026-04-29T07:15:24.088Z</time></trkpt><trkpt lat="45.1956174" lon="9.0814224"><ele>60.99999999999999</ele><time>2026-04-29T07:15:33.099Z</time></trkpt><trkpt lat="45.195567" lon="9.0814851"><ele>60.99999999999999</ele><time>2026-04-29T07:15:39.087Z</time></trkpt><trkpt lat="45.1955071" lon="9.0815345"><ele>61.28571428571428</ele><time>2026-04-29T07:15:51.087Z</time></trkpt><trkpt lat="45.1954488" lon="9.0815782"><ele>61.57142857142857</ele><time>2026-04-29T07:15:57.085Z</time></trkpt><trkpt lat="45.1953834" lon="9.081618"><ele>61.857142857142854</ele><time>2026-04-29T07:16:04.109Z</time></trkpt><trkpt lat="45.1953255" lon="9.081658"><ele>62.14285714285714</ele><time>2026-04-29T07:16:10.102Z</time></trkpt><trkpt lat="45.1952576" lon="9.0816947"><ele>62.42857142857143</ele><time>2026-04-29T07:16:18.13Z</time></trkpt><trkpt lat="45.1951979" lon="9.0817321"><ele>62.714285714285715</ele><time>2026-04-29T07:16:25.086Z</time></trkpt><trkpt lat="45.1951357" lon="9.0817622"><ele>63.0</ele><time>2026-04-29T07:16:32.087Z</time></trkpt><trkpt lat="45.1950693" lon="9.0817878"><ele>63.14285714285714</ele><time>2026-04-29T07:16:40.102Z</time></trkpt><trkpt lat="45.1949959" lon="9.0818428"><ele>63.285714285714285</ele><time>2026-04-29T07:16:47.086Z</time></trkpt><trkpt lat="45.1949351" lon="9.081881"><ele>63.42857142857143</ele><time>2026-04-29T07:16:50.086Z</time></trkpt><trkpt lat="45.1948734" lon="9.0819182"><ele>63.57142857142857</ele><time>2026-04-29T07:16:54.742Z</time></trkpt><trkpt lat="45.1948187" lon="9.0819627"><ele>63.71428571428571</ele><time>2026-04-29T07:17:00.087Z</time></trkpt><trkpt lat="45.1947511" lon="9.0819927"><ele>63.857142857142854</ele><time>2026-04-29T07:17:06.105Z</time></trkpt><trkpt lat="45.194681" lon="9.082033"><ele>64.0</ele><time>2026-04-29T07:17:13.086Z</time></trkpt><trkpt lat="45.1946146" lon="9.0820755"><ele>64.0</ele><time>2026-04-29T07:17:27.087Z</time></trkpt><trkpt lat="45.1945468" lon="9.0821043"><ele>63.99999999999999</ele><time>2026-04-29T07:17:34.086Z</time></trkpt><trkpt lat="45.1944846" lon="9.0821225"><ele>64.0</ele><time>2026-04-29T07:17:40.086Z</time></trkpt><trkpt lat="45.1944296" lon="9.0821697"><ele>64.0</ele><time>2026-04-29T07:17:46.088Z</time></trkpt><trkpt lat="45.1943625" lon="9.0822022"><ele>63.99999999999999</ele><time>2026-04-29T07:17:53.086Z</time></trkpt><trkpt lat="45.1943023" lon="9.0822454"><ele>64.0</ele><time>2026-04-29T07:17:59.109Z</time></trkpt><trkpt lat="45.1942359" lon="9.0822837"><ele>64.0</ele><time>2026-04-29T07:18:06.087Z</time></trkpt><trkpt lat="45.194183" lon="9.0823417"><ele>64.0</ele><time>2026-04-29T07:18:15.086Z</time></trkpt><trkpt lat="45.194134" lon="9.0824098"><ele>63.99999999999999</ele><time>2026-04-29T07:18:22.101Z</time></trkpt><trkpt lat="45.1941123" lon="9.0825094"><ele>64.0</ele><time>2026-04-29T07:18:30.127Z</time></trkpt><trkpt lat="45.194094" lon="9.082603"><ele>64.0</ele><time>2026-04-29T07:18:33.086Z</time></trkpt><trkpt lat="45.1940963" lon="9.0826954"><ele>63.99999999999999</ele><time>2026-04-29T07:18:38.089Z</time></trkpt><trkpt lat="45.1941362" lon="9.0827748"><ele>64.0</ele><time>2026-04-29T07:18:43.087Z</time></trkpt><trkpt lat="45.1941646" lon="9.0828562"><ele>64.0</ele><time>2026-04-29T07:18:50.086Z</time></trkpt><trkpt lat="45.1941138" lon="9.0829234"><ele>63.857142857142854</ele><time>2026-04-29T07:18:57.131Z</time></trkpt><trkpt lat="45.1940416" lon="9.0829357"><ele>63.71428571428571</ele><time>2026-04-29T07:19:11.029Z</time></trkpt><trkpt lat="45.1939767" lon="9.0829598"><ele>63.57142857142857</ele><time>2026-04-29T07:19:19.087Z</time></trkpt><trkpt lat="45.1939113" lon="9.0829578"><ele>63.42857142857143</ele><time>2026-04-29T07:19:25.086Z</time></trkpt><trkpt lat="45.1938476" lon="9.0829918"><ele>63.285714285714285</ele><time>2026-04-29T07:19:33.764Z</time></trkpt><trkpt lat="45.1937765" lon="9.0829934"><ele>63.14285714285714</ele><time>2026-04-29T07:19:39.133Z</time></trkpt><trkpt lat="45.1937017" lon="9.0830771"><ele>63.0</ele><time>2026-04-29T07:19:42.988Z</time></trkpt><trkpt lat="45.1936512" lon="9.0831457"><ele>62.85714285714286</ele><time>2026-04-29T07:19:47.086Z</time></trkpt><trkpt lat="45.1935844" lon="9.0831768"><ele>62.714285714285715</ele><time>2026-04-29T07:19:54.087Z</time></trkpt><trkpt lat="45.1935143" lon="9.0831991"><ele>62.57142857142857</ele><time>2026-04-29T07:20:00.087Z</time></trkpt><trkpt lat="45.1934763" lon="9.0832773"><ele>62.42857142857143</ele><time>2026-04-29T07:20:14.027Z</time></trkpt><trkpt lat="45.1934431" lon="9.0833623"><ele>62.28571428571429</ele><time>2026-04-29T07:20:21.086Z</time></trkpt><trkpt lat="45.193404" lon="9.0834426"><ele>62.142857142857146</ele><time>2026-04-29T07:20:28.087Z</time></trkpt><trkpt lat="45.193367" lon="9.0835312"><ele>62.0</ele><time>2026-04-29T07:20:35.086Z</time></trkpt><trkpt lat="45.1933433" lon="9.0836207"><ele>62.0</ele><time>2026-04-29T07:20:41.086Z</time></trkpt><trkpt lat="45.193326" lon="9.0837212"><ele>62.00000000000001</ele><time>2026-04-29T07:20:48.137Z</time></trkpt><trkpt lat="45.1933134" lon="9.0838132"><ele>62.0</ele><time>2026-04-29T07:20:55.144Z</time></trkpt><trkpt lat="45.193289" lon="9.0838973"><ele>62.0</ele><time>2026-04-29T07:21:02.086Z</time></trkpt><trkpt lat="45.1932661" lon="9.0839882"><ele>62.00000000000001</ele><time>2026-04-29T07:21:09.068Z</time></trkpt><trkpt lat="45.1932438" lon="9.0840765"><ele>62.0</ele><time>2026-04-29T07:21:18.087Z</time></trkpt><trkpt lat="45.1931783" lon="9.084055"><ele>62.0</ele><time>2026-04-29T07:21:34.086Z</time></trkpt><trkpt lat="45.1931252" lon="9.0840047"><ele>62.0</ele><time>2026-04-29T07:21:39.102Z</time></trkpt><trkpt lat="45.1930747" lon="9.083938"><ele>62.00000000000001</ele><time>2026-04-29T07:21:47.086Z</time></trkpt><trkpt lat="45.1930345" lon="9.0838589"><ele>62.0</ele><time>2026-04-29T07:21:55.115Z</time></trkpt><trkpt lat="45.1929656" lon="9.0838272"><ele>62.0</ele><time>2026-04-29T07:22:02.086Z</time></trkpt><trkpt lat="45.1929056" lon="9.083797"><ele>62.00000000000001</ele><time>2026-04-29T07:22:13.046Z</time></trkpt><trkpt lat="45.1928355" lon="9.0837661"><ele>62.0</ele><time>2026-04-29T07:22:20.091Z</time></trkpt><trkpt lat="45.1927742" lon="9.0837389"><ele>62.0</ele><time>2026-04-29T07:22:26.086Z</time></trkpt><trkpt lat="45.1927079" lon="9.0836954"><ele>62.0</ele><time>2026-04-29T07:22:33.086Z</time></trkpt><trkpt lat="45.1926405" lon="9.0836492"><ele>62.00000000000001</ele><time>2026-04-29T07:22:40.085Z</time></trkpt><trkpt lat="45.1925903" lon="9.0835909"><ele>62.0</ele><time>2026-04-29T07:22:46.085Z</time></trkpt><trkpt lat="45.1925429" lon="9.0835223"><ele>62.0</ele><time>2026-04-29T07:22:52.119Z</time></trkpt><trkpt lat="45.1924978" lon="9.0834472"><ele>62.00000000000001</ele><time>2026-04-29T07:23:00.085Z</time></trkpt><trkpt lat="45.1924589" lon="9.0833694"><ele>62.0</ele><time>2026-04-29T07:23:11.067Z</time></trkpt><trkpt lat="45.1924158" lon="9.0832964"><ele>62.0</ele><time>2026-04-29T07:23:19.1Z</time></trkpt><trkpt lat="45.1923625" lon="9.0832457"><ele>61.42857142857143</ele><time>2026-04-29T07:23:28.026Z</time></trkpt><trkpt lat="45.1922985" lon="9.0832134"><ele>60.85714285714286</ele><time>2026-04-29T07:23:35.127Z</time></trkpt><trkpt lat="45.1922392" lon="9.0831825"><ele>60.28571428571429</ele><time>2026-04-29T07:23:40.085Z</time></trkpt><trkpt lat="45.1921894" lon="9.0831172"><ele>59.71428571428572</ele><time>2026-04-29T07:23:46.087Z</time></trkpt><trkpt lat="45.1921533" lon="9.0830437"><ele>59.142857142857146</ele><time>2026-04-29T07:25:05.085Z</time></trkpt><trkpt lat="45.1921666" lon="9.0829507"><ele>58.571428571428584</ele><time>2026-04-29T07:25:11.094Z</time></trkpt><trkpt lat="45.1922276" lon="9.0828983"><ele>58.00000000000001</ele><time>2026-04-29T07:25:17.085Z</time></trkpt><trkpt lat="45.1922576" lon="9.0828068"><ele>58.00000000000001</ele><time>2026-04-29T07:25:24.088Z</time></trkpt><trkpt lat="45.1922455" lon="9.0827156"><ele>58.0</ele><time>2026-04-29T07:25:31.086Z</time></trkpt><trkpt lat="45.1922701" lon="9.0826266"><ele>58.00000000000001</ele><time>2026-04-29T07:25:46.085Z</time></trkpt><trkpt lat="45.192292" lon="9.082533"><ele>58.00000000000001</ele><time>2026-04-29T07:25:54.112Z</time></trkpt><trkpt lat="45.1923141" lon="9.0824396"><ele>58.0</ele><time>2026-04-29T07:26:02.085Z</time></trkpt><trkpt lat="45.1923088" lon="9.0823409"><ele>58.00000000000001</ele><time>2026-04-29T07:26:10.007Z</time></trkpt><trkpt lat="45.1922781" lon="9.0822544"><ele>58.00000000000001</ele><time>2026-04-29T07:26:17.085Z</time></trkpt><trkpt lat="45.1922446" lon="9.0821662"><ele>58.14285714285715</ele><time>2026-04-29T07:26:24.085Z</time></trkpt><trkpt lat="45.1922065" lon="9.0820905"><ele>58.28571428571429</ele><time>2026-04-29T07:26:30.085Z</time></trkpt><trkpt lat="45.1921966" lon="9.0819927"><ele>58.42857142857143</ele><time>2026-04-29T07:26:37.144Z</time></trkpt><trkpt lat="45.1921731" lon="9.0819012"><ele>58.57142857142858</ele><time>2026-04-29T07:26:46.1Z</time></trkpt><trkpt lat="45.1921484" lon="9.0818094"><ele>58.71428571428572</ele><time>2026-04-29T07:26:53.085Z</time></trkpt><trkpt lat="45.1921477" lon="9.0817095"><ele>58.857142857142854</ele><time>2026-04-29T07:27:55.102Z</time></trkpt><trkpt lat="45.1921638" lon="9.081611"><ele>59.0</ele><time>2026-04-29T07:27:59.004Z</time></trkpt><trkpt lat="45.1921822" lon="9.081517"><ele>58.71428571428571</ele><time>2026-04-29T07:28:03.085Z</time></trkpt><trkpt lat="45.1921687" lon="9.0814243"><ele>58.42857142857143</ele><time>2026-04-29T07:28:09.107Z</time></trkpt><trkpt lat="45.1921994" lon="9.0813314"><ele>58.14285714285714</ele><time>2026-04-29T07:28:32.027Z</time></trkpt><trkpt lat="45.1922424" lon="9.081266"><ele>57.857142857142854</ele><time>2026-04-29T07:28:38.086Z</time></trkpt><trkpt lat="45.1922729" lon="9.0811859"><ele>57.57142857142857</ele><time>2026-04-29T07:28:44.127Z</time></trkpt><trkpt lat="45.1923078" lon="9.081106"><ele>57.285714285714285</ele><time>2026-04-29T07:28:50.116Z</time></trkpt><trkpt lat="45.1923551" lon="9.0810272"><ele>57.0</ele><time>2026-04-29T07:28:58.086Z</time></trkpt><trkpt lat="45.1923966" lon="9.0809459"><ele>57.42857142857142</ele><time>2026-04-29T07:29:11.086Z</time></trkpt><trkpt lat="45.1924493" lon="9.0808805"><ele>57.85714285714285</ele><time>2026-04-29T07:29:18.086Z</time></trkpt><trkpt lat="45.1925011" lon="9.0808181"><ele>58.285714285714285</ele><time>2026-04-29T07:29:25.084Z</time></trkpt><trkpt lat="45.1925416" lon="9.0807494"><ele>58.71428571428571</ele><time>2026-04-29T07:29:31.189Z</time></trkpt><trkpt lat="45.1925942" lon="9.0806913"><ele>59.14285714285714</ele><time>2026-04-29T07:29:37.085Z</time></trkpt><trkpt lat="45.1926487" lon="9.0806355"><ele>59.57142857142857</ele><time>2026-04-29T07:29:44.107Z</time></trkpt><trkpt lat="45.1926992" lon="9.0805685"><ele>60.0</ele><time>2026-04-29T07:29:51.065Z</time></trkpt><trkpt lat="45.1927592" lon="9.0805138"><ele>60.0</ele><time>2026-04-29T07:29:58.121Z</time></trkpt><trkpt lat="45.1928056" lon="9.080447"><ele>60.0</ele><time>2026-04-29T07:30:03.987Z</time></trkpt><trkpt lat="45.1928666" lon="9.0803862"><ele>60.0</ele><time>2026-04-29T07:30:11.102Z</time></trkpt><trkpt lat="45.192912" lon="9.0803203"><ele>60.0</ele><time>2026-04-29T07:30:17.085Z</time></trkpt><trkpt lat="45.1929642" lon="9.0802621"><ele>60.0</ele><time>2026-04-29T07:30:23.085Z</time></trkpt><trkpt lat="45.1930151" lon="9.0801987"><ele>60.0</ele><time>2026-04-29T07:30:29.084Z</time></trkpt><trkpt lat="45.1930771" lon="9.0801407"><ele>60.0</ele><time>2026-04-29T07:30:36.085Z</time></trkpt><trkpt lat="45.1931305" lon="9.080078"><ele>60.142857142857146</ele><time>2026-04-29T07:30:42.128Z</time></trkpt><trkpt lat="45.1931828" lon="9.0800232"><ele>60.28571428571428</ele><time>2026-04-29T07:30:48.085Z</time></trkpt><trkpt lat="45.1932421" lon="9.0799701"><ele>60.42857142857142</ele><time>2026-04-29T07:30:54.122Z</time></trkpt><trkpt lat="45.1933054" lon="9.079918"><ele>60.57142857142857</ele><time>2026-04-29T07:31:01.089Z</time></trkpt><trkpt lat="45.1933638" lon="9.0798693"><ele>60.71428571428571</ele><time>2026-04-29T07:31:07.105Z</time></trkpt><trkpt lat="45.1934221" lon="9.0798086"><ele>60.85714285714285</ele><time>2026-04-29T07:31:14.046Z</time></trkpt><trkpt lat="45.1934857" lon="9.0797603"><ele>60.99999999999999</ele><time>2026-04-29T07:31:21.126Z</time></trkpt><trkpt lat="45.1935411" lon="9.0796925"><ele>60.71428571428571</ele><time>2026-04-29T07:31:28.103Z</time></trkpt><trkpt lat="45.1935938" lon="9.0796206"><ele>60.42857142857143</ele><time>2026-04-29T07:31:35.103Z</time></trkpt><trkpt lat="45.1936544" lon="9.0795768"><ele>60.14285714285714</ele><time>2026-04-29T07:31:43.085Z</time></trkpt><trkpt lat="45.1937073" lon="9.0795063"><ele>59.857142857142854</ele><time>2026-04-29T07:34:57.102Z</time></trkpt><trkpt lat="45.1937602" lon="9.0794567"><ele>59.57142857142857</ele><time>2026-04-29T07:35:02.105Z</time></trkpt><trkpt lat="45.1937973" lon="9.0793777"><ele>59.285714285714285</ele><time>2026-04-29T07:35:10.084Z</time></trkpt><trkpt lat="45.1938634" lon="9.0793877"><ele>59.0</ele><time>2026-04-29T07:35:30.006Z</time></trkpt><trkpt lat="45.1938878" lon="9.0793053"><ele>59.0</ele><time>2026-04-29T07:38:09.084Z</time></trkpt><trkpt lat="45.1939426" lon="9.0792506"><ele>59.0</ele><time>2026-04-29T07:38:17.12Z</time></trkpt><trkpt lat="45.1940038" lon="9.0791976"><ele>59.0</ele><time>2026-04-29T07:38:24.084Z</time></trkpt><trkpt lat="45.1940487" lon="9.0791253"><ele>59.0</ele><time>2026-04-29T07:38:36.01Z</time></trkpt><trkpt lat="45.1941057" lon="9.0790719"><ele>59.0</ele><time>2026-04-29T07:38:43.111Z</time></trkpt><trkpt lat="45.1941671" lon="9.0790515"><ele>59.0</ele><time>2026-04-29T07:38:49.084Z</time></trkpt><trkpt lat="45.1942362" lon="9.0790337"><ele>59.0</ele><time>2026-04-29T07:38:55.05Z</time></trkpt><trkpt lat="45.1943076" lon="9.0790582"><ele>59.0</ele><time>2026-04-29T07:39:01.108Z</time></trkpt><trkpt lat="45.1943802" lon="9.0790701"><ele>59.0</ele><time>2026-04-29T07:39:09.107Z</time></trkpt><trkpt lat="45.1944385" lon="9.0791048"><ele>59.0</ele><time>2026-04-29T07:39:15.083Z</time></trkpt><trkpt lat="45.1945038" lon="9.0791034"><ele>59.0</ele><time>2026-04-29T07:39:21.097Z</time></trkpt><trkpt lat="45.1945679" lon="9.0790903"><ele>59.0</ele><time>2026-04-29T07:39:27.083Z</time></trkpt><trkpt lat="45.1946289" lon="9.0790592"><ele>59.0</ele><time>2026-04-29T07:39:33.084Z</time></trkpt><trkpt lat="45.1946863" lon="9.0790158"><ele>59.0</ele><time>2026-04-29T07:39:39.085Z</time></trkpt><trkpt lat="45.194747" lon="9.0789836"><ele>59.0</ele><time>2026-04-29T07:39:45.083Z</time></trkpt><trkpt lat="45.1948174" lon="9.0789827"><ele>59.0</ele><time>2026-04-29T07:39:52.126Z</time></trkpt><trkpt lat="45.1948801" lon="9.0790086"><ele>59.0</ele><time>2026-04-29T07:40:08.083Z</time></trkpt><trkpt lat="45.1949379" lon="9.079062"><ele>59.0</ele><time>2026-04-29T07:40:15.09Z</time></trkpt><trkpt lat="45.1950011" lon="9.0790406"><ele>59.0</ele><time>2026-04-29T07:40:21.986Z</time></trkpt><trkpt lat="45.1950693" lon="9.0790298"><ele>59.0</ele><time>2026-04-29T07:40:31.107Z</time></trkpt><trkpt lat="45.1951367" lon="9.0789978"><ele>59.0</ele><time>2026-04-29T07:40:37.084Z</time></trkpt><trkpt lat="45.1951974" lon="9.0789656"><ele>59.14285714285714</ele><time>2026-04-29T07:40:49.084Z</time></trkpt><trkpt lat="45.1952646" lon="9.0789988"><ele>59.28571428571429</ele><time>2026-04-29T07:40:55.084Z</time></trkpt><trkpt lat="45.1953276" lon="9.0789795"><ele>59.42857142857143</ele><time>2026-04-29T07:41:02.084Z</time></trkpt><trkpt lat="45.1953863" lon="9.0789107"><ele>59.57142857142857</ele><time>2026-04-29T07:41:11.092Z</time></trkpt><trkpt lat="45.1954469" lon="9.0788814"><ele>59.71428571428571</ele><time>2026-04-29T07:41:18.084Z</time></trkpt><trkpt lat="45.1955117" lon="9.0788823"><ele>59.85714285714286</ele><time>2026-04-29T07:41:29.083Z</time></trkpt><trkpt lat="45.1955836" lon="9.0788564"><ele>60.0</ele><time>2026-04-29T07:41:34.084Z</time></trkpt><trkpt lat="45.1956563" lon="9.0788403"><ele>59.85714285714286</ele><time>2026-04-29T07:41:41.024Z</time></trkpt><trkpt lat="45.1957177" lon="9.0788013"><ele>59.71428571428571</ele><time>2026-04-29T07:41:48.102Z</time></trkpt><trkpt lat="45.195784" lon="9.0788189"><ele>59.57142857142857</ele><time>2026-04-29T07:41:55.067Z</time></trkpt><trkpt lat="45.1958509" lon="9.0788244"><ele>59.42857142857143</ele><time>2026-04-29T07:42:01.084Z</time></trkpt><trkpt lat="45.1959115" lon="9.078855"><ele>59.28571428571429</ele><time>2026-04-29T07:42:13.084Z</time></trkpt><trkpt lat="45.1959807" lon="9.0788598"><ele>59.14285714285714</ele><time>2026-04-29T07:42:21.106Z</time></trkpt><trkpt lat="45.1960495" lon="9.0788832"><ele>59.0</ele><time>2026-04-29T07:42:29.024Z</time></trkpt><trkpt lat="45.1961204" lon="9.0788855"><ele>59.0</ele><time>2026-04-29T07:42:36.105Z</time></trkpt><trkpt lat="45.1961753" lon="9.0789481"><ele>59.0</ele><time>2026-04-29T07:42:42.082Z</time></trkpt><trkpt lat="45.1962369" lon="9.0790052"><ele>59.0</ele><time>2026-04-29T07:42:50.1Z</time></trkpt><trkpt lat="45.1963054" lon="9.0790188"><ele>59.0</ele><time>2026-04-29T07:43:08.082Z</time></trkpt><trkpt lat="45.1963526" lon="9.0789553"><ele>59.0</ele><time>2026-04-29T07:43:14.082Z</time></trkpt><trkpt lat="45.1963847" lon="9.0788773"><ele>59.0</ele><time>2026-04-29T07:43:20.098Z</time></trkpt><trkpt lat="45.1964448" lon="9.0788461"><ele>59.0</ele><time>2026-04-29T07:43:27.082Z</time></trkpt><trkpt lat="45.1965115" lon="9.0788276"><ele>59.14285714285714</ele><time>2026-04-29T07:43:35.103Z</time></trkpt><trkpt lat="45.1965342" lon="9.0787375"><ele>59.28571428571429</ele><time>2026-04-29T07:43:48.092Z</time></trkpt><trkpt lat="45.1965562" lon="9.0786507"><ele>59.42857142857143</ele><time>2026-04-29T07:43:55.146Z</time></trkpt><trkpt lat="45.1965706" lon="9.0785558"><ele>59.57142857142857</ele><time>2026-04-29T07:44:02.086Z</time></trkpt><trkpt lat="45.1965747" lon="9.0784633"><ele>59.71428571428571</ele><time>2026-04-29T07:44:09.082Z</time></trkpt><trkpt lat="45.1965679" lon="9.0783697"><ele>59.85714285714286</ele><time>2026-04-29T07:44:16.129Z</time></trkpt><trkpt lat="45.1965883" lon="9.078276"><ele>60.0</ele><time>2026-04-29T07:44:24.143Z</time></trkpt><trkpt lat="45.1966113" lon="9.0781834"><ele>59.285714285714285</ele><time>2026-04-29T07:44:31.088Z</time></trkpt><trkpt lat="45.1966283" lon="9.0780858"><ele>58.57142857142857</ele><time>2026-04-29T07:44:37.126Z</time></trkpt><trkpt lat="45.1966826" lon="9.0780366"><ele>57.857142857142854</ele><time>2026-04-29T07:44:43.008Z</time></trkpt><trkpt lat="45.1967489" lon="9.0779897"><ele>57.14285714285714</ele><time>2026-04-29T07:44:50.112Z</time></trkpt><trkpt lat="45.1968136" lon="9.0779665"><ele>56.42857142857143</ele><time>2026-04-29T07:44:56.082Z</time></trkpt><trkpt lat="45.1968859" lon="9.0779715"><ele>55.71428571428571</ele><time>2026-04-29T07:45:03.101Z</time></trkpt><trkpt lat="45.196954" lon="9.0779676"><ele>55.0</ele><time>2026-04-29T07:45:09.986Z</time></trkpt><trkpt lat="45.1970156" lon="9.0779957"><ele>54.99999999999999</ele><time>2026-04-29T07:45:16.088Z</time></trkpt><trkpt lat="45.197084" lon="9.0779931"><ele>55.0</ele><time>2026-04-29T07:45:23.082Z</time></trkpt><trkpt lat="45.197152" lon="9.0780044"><ele>55.0</ele><time>2026-04-29T07:45:30.083Z</time></trkpt><trkpt lat="45.1972187" lon="9.0780106"><ele>55.0</ele><time>2026-04-29T07:45:37.042Z</time></trkpt><trkpt lat="45.1972865" lon="9.0780246"><ele>55.0</ele><time>2026-04-29T07:45:44.082Z</time></trkpt><trkpt lat="45.1973539" lon="9.0780271"><ele>54.99999999999999</ele><time>2026-04-29T07:45:50.119Z</time></trkpt><trkpt lat="45.1974206" lon="9.0780213"><ele>55.0</ele><time>2026-04-29T07:45:57.083Z</time></trkpt><trkpt lat="45.1974902" lon="9.0780079"><ele>55.14285714285714</ele><time>2026-04-29T07:46:06.082Z</time></trkpt><trkpt lat="45.1975556" lon="9.0779943"><ele>55.285714285714285</ele><time>2026-04-29T07:46:11.006Z</time></trkpt><trkpt lat="45.1976299" lon="9.077977"><ele>55.42857142857143</ele><time>2026-04-29T07:46:16.066Z</time></trkpt><trkpt lat="45.1977004" lon="9.0779559"><ele>55.57142857142857</ele><time>2026-04-29T07:46:23.082Z</time></trkpt><trkpt lat="45.1977639" lon="9.0779649"><ele>55.714285714285715</ele><time>2026-04-29T07:46:31.095Z</time></trkpt><trkpt lat="45.1978283" lon="9.0779483"><ele>55.857142857142854</ele><time>2026-04-29T07:46:45.089Z</time></trkpt><trkpt lat="45.1978994" lon="9.0779547"><ele>56.0</ele><time>2026-04-29T07:46:52.082Z</time></trkpt><trkpt lat="45.1979693" lon="9.0779567"><ele>56.0</ele><time>2026-04-29T07:46:59.005Z</time></trkpt><trkpt lat="45.1980323" lon="9.077981"><ele>55.99999999999999</ele><time>2026-04-29T07:47:05.132Z</time></trkpt><trkpt lat="45.1981148" lon="9.0779613"><ele>55.99999999999999</ele><time>2026-04-29T07:47:15.092Z</time></trkpt><trkpt lat="45.1981789" lon="9.0779782"><ele>56.0</ele><time>2026-04-29T07:47:18.114Z</time></trkpt><trkpt lat="45.1982402" lon="9.0780078"><ele>56.0</ele><time>2026-04-29T07:47:26.082Z</time></trkpt><trkpt lat="45.2046934" lon="9.091808"><ele>58.85714285714286</ele><time>2026-04-29T08:28:39.078Z</time></trkpt><trkpt lat="45.2046307" lon="9.0918856"><ele>61.714285714285715</ele><time>2026-04-29T08:28:43.086Z</time></trkpt><trkpt lat="45.2045691" lon="9.0919458"><ele>64.57142857142857</ele><time>2026-04-29T08:28:45.077Z</time></trkpt><trkpt lat="45.2045162" lon="9.0920022"><ele>67.42857142857143</ele><time>2026-04-29T08:28:47.077Z</time></trkpt><trkpt lat="45.2044721" lon="9.0920697"><ele>70.28571428571429</ele><time>2026-04-29T08:28:50.077Z</time></trkpt><trkpt lat="45.2045347" lon="9.0920462"><ele>73.14285714285714</ele><time>2026-04-29T08:29:02.078Z</time></trkpt><trkpt lat="45.2045666" lon="9.0919371"><ele>76.0</ele><time>2026-04-29T08:29:10.101Z</time></trkpt><trkpt lat="45.2046212" lon="9.0918366"><ele>76.0</ele><time>2026-04-29T08:29:15.078Z</time></trkpt><trkpt lat="45.2046845" lon="9.0917677"><ele>76.0</ele><time>2026-04-29T08:29:18.077Z</time></trkpt><trkpt lat="45.2047359" lon="9.091711"><ele>76.0</ele><time>2026-04-29T08:29:21.084Z</time></trkpt><trkpt lat="45.2047914" lon="9.0916678"><ele>76.0</ele><time>2026-04-29T08:29:24.078Z</time></trkpt><trkpt lat="45.2048063" lon="9.0915759"><ele>76.0</ele><time>2026-04-29T08:29:31.077Z</time></trkpt><trkpt lat="45.2048275" lon="9.0914791"><ele>76.0</ele><time>2026-04-29T08:29:33.078Z</time></trkpt><trkpt lat="45.2048816" lon="9.0913884"><ele>76.0</ele><time>2026-04-29T08:29:35.078Z</time></trkpt><trkpt lat="45.2049354" lon="9.0913309"><ele>76.5</ele><time>2026-04-29T08:29:37.11Z</time></trkpt><trkpt lat="45.2050203" lon="9.0913287"><ele>77.0</ele><time>2026-04-29T08:29:39.078Z</time></trkpt><trkpt lat="45.2051085" lon="9.0914063"><ele>77.5</ele><time>2026-04-29T08:29:41.077Z</time></trkpt><trkpt lat="45.2051858" lon="9.0915377"><ele>78.0</ele><time>2026-04-29T08:29:43.078Z</time></trkpt><trkpt lat="45.2052323" lon="9.0916084"><ele>78.5</ele><time>2026-04-29T08:29:44.077Z</time></trkpt><trkpt lat="45.2052831" lon="9.0916785"><ele>79.0</ele><time>2026-04-29T08:29:45.077Z</time></trkpt><trkpt lat="45.2053386" lon="9.0917548"><ele>79.0</ele><time>2026-04-29T08:29:46.078Z</time></trkpt><trkpt lat="45.2054064" lon="9.0918263"><ele>79.0</ele><time>2026-04-29T08:29:47.077Z</time></trkpt><trkpt lat="45.2054774" lon="9.0919121"><ele>79.0</ele><time>2026-04-29T08:29:48.077Z</time></trkpt><trkpt lat="45.2055482" lon="9.0919949"><ele>79.0</ele><time>2026-04-29T08:29:49.077Z</time></trkpt><trkpt lat="45.205616" lon="9.0920935"><ele>79.0</ele><time>2026-04-29T08:29:50.077Z</time></trkpt><trkpt lat="45.2057033" lon="9.0921955"><ele>79.0</ele><time>2026-04-29T08:29:51.077Z</time></trkpt><trkpt lat="45.2057839" lon="9.0922497"><ele>79.0</ele><time>2026-04-29T08:29:52.078Z</time></trkpt><trkpt lat="45.2058416" lon="9.092338"><ele>79.0</ele><time>2026-04-29T08:29:53.077Z</time></trkpt><trkpt lat="45.2059185" lon="9.0924311"><ele>79.0</ele><time>2026-04-29T08:29:54.077Z</time></trkpt><trkpt lat="45.2059908" lon="9.0925254"><ele>79.0</ele><time>2026-04-29T08:29:55.077Z</time></trkpt><trkpt lat="45.206064" lon="9.0926388"><ele>79.2</ele><time>2026-04-29T08:29:56.078Z</time></trkpt><trkpt lat="45.2061405" lon="9.0927455"><ele>79.4</ele><time>2026-04-29T08:29:57.077Z</time></trkpt><trkpt lat="45.2062135" lon="9.0928382"><ele>79.6</ele><time>2026-04-29T08:29:58.077Z</time></trkpt><trkpt lat="45.20628" lon="9.0929291"><ele>79.8</ele><time>2026-04-29T08:29:59.077Z</time></trkpt><trkpt lat="45.2063394" lon="9.0930455"><ele>80.0</ele><time>2026-04-29T08:30:00.078Z</time></trkpt><trkpt lat="45.206406" lon="9.0931118"><ele>80.0</ele><time>2026-04-29T08:30:01.077Z</time></trkpt><trkpt lat="45.2064646" lon="9.0931864"><ele>80.0</ele><time>2026-04-29T08:30:02.078Z</time></trkpt><trkpt lat="45.2065143" lon="9.0932564"><ele>80.0</ele><time>2026-04-29T08:30:03.078Z</time></trkpt><trkpt lat="45.2065726" lon="9.0933424"><ele>80.0</ele><time>2026-04-29T08:30:04.077Z</time></trkpt><trkpt lat="45.2066272" lon="9.0934256"><ele>80.0</ele><time>2026-04-29T08:30:05.078Z</time></trkpt><trkpt lat="45.2066956" lon="9.0934922"><ele>80.0</ele><time>2026-04-29T08:30:06.078Z</time></trkpt><trkpt lat="45.2067671" lon="9.0935665"><ele>79.66666666666667</ele><time>2026-04-29T08:30:07.078Z</time></trkpt><trkpt lat="45.2068437" lon="9.0936461"><ele>79.33333333333334</ele><time>2026-04-29T08:30:08.078Z</time></trkpt><trkpt lat="45.2069159" lon="9.0937306"><ele>79.0</ele><time>2026-04-29T08:30:09.078Z</time></trkpt><trkpt lat="45.2069769" lon="9.0938086"><ele>78.66666666666667</ele><time>2026-04-29T08:30:10.077Z</time></trkpt><trkpt lat="45.2070312" lon="9.0938722"><ele>78.33333333333333</ele><time>2026-04-29T08:30:11.078Z</time></trkpt><trkpt lat="45.2070829" lon="9.0939422"><ele>78.0</ele><time>2026-04-29T08:30:12.078Z</time></trkpt><trkpt lat="45.2071245" lon="9.0940115"><ele>78.0</ele><time>2026-04-29T08:30:13.078Z</time></trkpt><trkpt lat="45.2071558" lon="9.0941187"><ele>78.0</ele><time>2026-04-29T08:30:15.078Z</time></trkpt><trkpt lat="45.2071221" lon="9.0942318"><ele>78.0</ele><time>2026-04-29T08:30:19.078Z</time></trkpt><trkpt lat="45.2070744" lon="9.0942988"><ele>78.0</ele><time>2026-04-29T08:30:20.078Z</time></trkpt><trkpt lat="45.2070312" lon="9.0943788"><ele>78.0</ele><time>2026-04-29T08:30:21.078Z</time></trkpt><trkpt lat="45.2069787" lon="9.0944985"><ele>78.0</ele><time>2026-04-29T08:30:22.078Z</time></trkpt><trkpt lat="45.206937" lon="9.0945985"><ele>78.0</ele><time>2026-04-29T08:30:23.078Z</time></trkpt><trkpt lat="45.206889" lon="9.0946789"><ele>78.0</ele><time>2026-04-29T08:30:24.078Z</time></trkpt><trkpt lat="45.2068516" lon="9.0947574"><ele>78.0</ele><time>2026-04-29T08:30:25.078Z</time></trkpt><trkpt lat="45.2067998" lon="9.0948407"><ele>78.0</ele><time>2026-04-29T08:30:26.078Z</time></trkpt><trkpt lat="45.2067418" lon="9.0949394"><ele>78.0</ele><time>2026-04-29T08:30:27.077Z</time></trkpt><trkpt lat="45.2066906" lon="9.0950531"><ele>78.0</ele><time>2026-04-29T08:30:28.077Z</time></trkpt><trkpt lat="45.2066293" lon="9.0951575"><ele>78.0</ele><time>2026-04-29T08:30:29.078Z</time></trkpt><trkpt lat="45.2065706" lon="9.0952618"><ele>78.0</ele><time>2026-04-29T08:30:30.077Z</time></trkpt><trkpt lat="45.2065194" lon="9.0953691"><ele>78.0</ele><time>2026-04-29T08:30:31.078Z</time></trkpt><trkpt lat="45.2064624" lon="9.0954703"><ele>78.0</ele><time>2026-04-29T08:30:32.078Z</time></trkpt><trkpt lat="45.2063997" lon="9.0955686"><ele>78.0</ele><time>2026-04-29T08:30:33.077Z</time></trkpt><trkpt lat="45.2063413" lon="9.0956748"><ele>77.8</ele><time>2026-04-29T08:30:34.077Z</time></trkpt><trkpt lat="45.2062806" lon="9.0957782"><ele>77.6</ele><time>2026-04-29T08:30:35.077Z</time></trkpt><trkpt lat="45.2062216" lon="9.0958868"><ele>77.4</ele><time>2026-04-29T08:30:36.077Z</time></trkpt><trkpt lat="45.2061517" lon="9.0959739"><ele>77.2</ele><time>2026-04-29T08:30:37.077Z</time></trkpt><trkpt lat="45.2060898" lon="9.0960745"><ele>77.0</ele><time>2026-04-29T08:30:38.078Z</time></trkpt><trkpt lat="45.2060307" lon="9.0961684"><ele>77.0</ele><time>2026-04-29T08:30:39.078Z</time></trkpt><trkpt lat="45.205979" lon="9.0962735"><ele>77.0</ele><time>2026-04-29T08:30:40.078Z</time></trkpt><trkpt lat="45.2059178" lon="9.0963713"><ele>77.0</ele><time>2026-04-29T08:30:41.077Z</time></trkpt><trkpt lat="45.2058574" lon="9.0964653"><ele>77.0</ele><time>2026-04-29T08:30:42.077Z</time></trkpt><trkpt lat="45.2058035" lon="9.0965727"><ele>77.0</ele><time>2026-04-29T08:30:43.078Z</time></trkpt><trkpt lat="45.2057356" lon="9.096687"><ele>77.0</ele><time>2026-04-29T08:30:44.077Z</time></trkpt><trkpt lat="45.2056714" lon="9.0968005"><ele>77.0</ele><time>2026-04-29T08:30:45.077Z</time></trkpt><trkpt lat="45.2056119" lon="9.0969105"><ele>77.0</ele><time>2026-04-29T08:30:46.078Z</time></trkpt><trkpt lat="45.2055586" lon="9.0970107"><ele>77.0</ele><time>2026-04-29T08:30:47.078Z</time></trkpt><trkpt lat="45.205495" lon="9.0971086"><ele>77.0</ele><time>2026-04-29T08:30:48.078Z</time></trkpt><trkpt lat="45.2054392" lon="9.0972072"><ele>77.2</ele><time>2026-04-29T08:30:49.078Z</time></trkpt><trkpt lat="45.2053838" lon="9.0973032"><ele>77.4</ele><time>2026-04-29T08:30:50.077Z</time></trkpt><trkpt lat="45.2053306" lon="9.0974029"><ele>77.6</ele><time>2026-04-29T08:30:51.077Z</time></trkpt><trkpt lat="45.2052756" lon="9.0975169"><ele>77.8</ele><time>2026-04-29T08:30:52.077Z</time></trkpt><trkpt lat="45.2052217" lon="9.0976156"><ele>78.0</ele><time>2026-04-29T08:30:53.078Z</time></trkpt><trkpt lat="45.2051669" lon="9.0977159"><ele>78.0</ele><time>2026-04-29T08:30:54.077Z</time></trkpt><trkpt lat="45.2051129" lon="9.0978015"><ele>78.0</ele><time>2026-04-29T08:30:55.077Z</time></trkpt><trkpt lat="45.2050675" lon="9.0978878"><ele>78.0</ele><time>2026-04-29T08:30:56.077Z</time></trkpt><trkpt lat="45.2050225" lon="9.0979628"><ele>78.0</ele><time>2026-04-29T08:30:57.077Z</time></trkpt><trkpt lat="45.2049495" lon="9.0980692"><ele>78.0</ele><time>2026-04-29T08:30:59.077Z</time></trkpt><trkpt lat="45.2048852" lon="9.0981816"><ele>78.0</ele><time>2026-04-29T08:31:01.078Z</time></trkpt><trkpt lat="45.2048038" lon="9.0983219"><ele>77.83333333333333</ele><time>2026-04-29T08:31:03.078Z</time></trkpt><trkpt lat="45.2047662" lon="9.0983947"><ele>77.66666666666667</ele><time>2026-04-29T08:31:04.078Z</time></trkpt><trkpt lat="45.2046795" lon="9.0985411"><ele>77.5</ele><time>2026-04-29T08:31:06.077Z</time></trkpt><trkpt lat="45.2046338" lon="9.0986148"><ele>77.33333333333334</ele><time>2026-04-29T08:31:07.077Z</time></trkpt><trkpt lat="45.2045875" lon="9.0986992"><ele>77.16666666666667</ele><time>2026-04-29T08:31:08.078Z</time></trkpt><trkpt lat="45.2045339" lon="9.0987783"><ele>77.0</ele><time>2026-04-29T08:31:09.077Z</time></trkpt><trkpt lat="45.2044857" lon="9.0988669"><ele>77.0</ele><time>2026-04-29T08:31:10.077Z</time></trkpt><trkpt lat="45.2044395" lon="9.098942"><ele>77.0</ele><time>2026-04-29T08:31:11.078Z</time></trkpt><trkpt lat="45.2043882" lon="9.0990144"><ele>77.0</ele><time>2026-04-29T08:31:12.078Z</time></trkpt><trkpt lat="45.2043358" lon="9.0990874"><ele>77.0</ele><time>2026-04-29T08:31:13.077Z</time></trkpt><trkpt lat="45.2042832" lon="9.0991639"><ele>77.0</ele><time>2026-04-29T08:31:14.078Z</time></trkpt><trkpt lat="45.2042268" lon="9.0992374"><ele>77.0</ele><time>2026-04-29T08:31:15.078Z</time></trkpt><trkpt lat="45.204177" lon="9.0993197"><ele>77.0</ele><time>2026-04-29T08:31:16.078Z</time></trkpt><trkpt lat="45.2041256" lon="9.0994047"><ele>77.4</ele><time>2026-04-29T08:31:17.077Z</time></trkpt><trkpt lat="45.2040753" lon="9.0995053"><ele>77.80000000000001</ele><time>2026-04-29T08:31:18.077Z</time></trkpt><trkpt lat="45.2040077" lon="9.0996072"><ele>78.2</ele><time>2026-04-29T08:31:19.077Z</time></trkpt><trkpt lat="45.2039488" lon="9.0997073"><ele>78.60000000000001</ele><time>2026-04-29T08:31:20.077Z</time></trkpt><trkpt lat="45.2038818" lon="9.0998014"><ele>79.0</ele><time>2026-04-29T08:31:21.078Z</time></trkpt><trkpt lat="45.2038325" lon="9.0999078"><ele>76.8</ele><time>2026-04-29T08:31:22.078Z</time></trkpt><trkpt lat="45.2037805" lon="9.1000086"><ele>74.60000000000001</ele><time>2026-04-29T08:31:23.078Z</time></trkpt><trkpt lat="45.203713" lon="9.1001236"><ele>72.4</ele><time>2026-04-29T08:31:24.078Z</time></trkpt><trkpt lat="45.2036447" lon="9.1002353"><ele>70.2</ele><time>2026-04-29T08:31:25.077Z</time></trkpt><trkpt lat="45.2035887" lon="9.1003526"><ele>68.0</ele><time>2026-04-29T08:31:26.077Z</time></trkpt><trkpt lat="45.2035282" lon="9.1004584"><ele>68.0</ele><time>2026-04-29T08:31:27.077Z</time></trkpt><trkpt lat="45.2034807" lon="9.100581"><ele>68.0</ele><time>2026-04-29T08:31:28.078Z</time></trkpt><trkpt lat="45.2034246" lon="9.1006877"><ele>68.0</ele><time>2026-04-29T08:31:29.077Z</time></trkpt><trkpt lat="45.2033726" lon="9.1007779"><ele>68.0</ele><time>2026-04-29T08:31:30.078Z</time></trkpt><trkpt lat="45.2033348" lon="9.1008685"><ele>68.0</ele><time>2026-04-29T08:31:31.077Z</time></trkpt><trkpt lat="45.2032939" lon="9.1009531"><ele>68.0</ele><time>2026-04-29T08:31:32.077Z</time></trkpt><trkpt lat="45.2032588" lon="9.1010426"><ele>68.5</ele><time>2026-04-29T08:31:33.077Z</time></trkpt><trkpt lat="45.2032164" lon="9.10114"><ele>69.0</ele><time>2026-04-29T08:31:34.077Z</time></trkpt><trkpt lat="45.2031775" lon="9.1012533"><ele>69.5</ele><time>2026-04-29T08:31:35.078Z</time></trkpt><trkpt lat="45.2031394" lon="9.1013355"><ele>70.0</ele><time>2026-04-29T08:31:36.077Z</time></trkpt><trkpt lat="45.2030935" lon="9.1014196"><ele>70.5</ele><time>2026-04-29T08:31:37.078Z</time></trkpt><trkpt lat="45.2030425" lon="9.1015202"><ele>71.0</ele><time>2026-04-29T08:31:38.077Z</time></trkpt><trkpt lat="45.2029783" lon="9.1016194"><ele>71.0</ele><time>2026-04-29T08:31:39.078Z</time></trkpt><trkpt lat="45.2029284" lon="9.1017364"><ele>71.0</ele><time>2026-04-29T08:31:40.077Z</time></trkpt><trkpt lat="45.2028753" lon="9.101839"><ele>71.0</ele><time>2026-04-29T08:31:41.078Z</time></trkpt><trkpt lat="45.2028158" lon="9.1019379"><ele>71.0</ele><time>2026-04-29T08:31:42.078Z</time></trkpt><trkpt lat="45.2027599" lon="9.1020181"><ele>71.0</ele><time>2026-04-29T08:31:43.078Z</time></trkpt><trkpt lat="45.2026993" lon="9.1021042"><ele>71.0</ele><time>2026-04-29T08:31:44.077Z</time></trkpt><trkpt lat="45.2026329" lon="9.1021912"><ele>71.0</ele><time>2026-04-29T08:31:45.078Z</time></trkpt><trkpt lat="45.2025744" lon="9.102291"><ele>71.0</ele><time>2026-04-29T08:31:46.077Z</time></trkpt><trkpt lat="45.2025103" lon="9.1023692"><ele>71.0</ele><time>2026-04-29T08:31:47.078Z</time></trkpt><trkpt lat="45.2024449" lon="9.1024286"><ele>71.0</ele><time>2026-04-29T08:31:48.077Z</time></trkpt><trkpt lat="45.2023838" lon="9.1024781"><ele>71.0</ele><time>2026-04-29T08:31:49.078Z</time></trkpt><trkpt lat="45.202319" lon="9.1025384"><ele>71.0</ele><time>2026-04-29T08:31:50.077Z</time></trkpt><trkpt lat="45.2022591" lon="9.1026008"><ele>71.0</ele><time>2026-04-29T08:31:51.078Z</time></trkpt><trkpt lat="45.2022018" lon="9.1026749"><ele>71.0</ele><time>2026-04-29T08:31:52.078Z</time></trkpt><trkpt lat="45.2021373" lon="9.1027458"><ele>71.0</ele><time>2026-04-29T08:31:53.077Z</time></trkpt><trkpt lat="45.2020752" lon="9.1028102"><ele>71.0</ele><time>2026-04-29T08:31:54.077Z</time></trkpt><trkpt lat="45.2020048" lon="9.1028755"><ele>71.0</ele><time>2026-04-29T08:31:55.077Z</time></trkpt><trkpt lat="45.201939" lon="9.1029478"><ele>71.0</ele><time>2026-04-29T08:31:56.077Z</time></trkpt><trkpt lat="45.2018725" lon="9.1030265"><ele>71.0</ele><time>2026-04-29T08:31:57.077Z</time></trkpt><trkpt lat="45.2018132" lon="9.1031083"><ele>71.0</ele><time>2026-04-29T08:31:58.078Z</time></trkpt><trkpt lat="45.2017444" lon="9.1031853"><ele>71.0</ele><time>2026-04-29T08:31:59.078Z</time></trkpt><trkpt lat="45.2016693" lon="9.1032665"><ele>71.0</ele><time>2026-04-29T08:32:00.078Z</time></trkpt><trkpt lat="45.201595" lon="9.103346"><ele>71.0</ele><time>2026-04-29T08:32:01.078Z</time></trkpt><trkpt lat="45.2015212" lon="9.1034305"><ele>72.8</ele><time>2026-04-29T08:32:02.077Z</time></trkpt><trkpt lat="45.2014446" lon="9.1035065"><ele>74.6</ele><time>2026-04-29T08:32:03.077Z</time></trkpt><trkpt lat="45.2013629" lon="9.1035914"><ele>76.4</ele><time>2026-04-29T08:32:04.077Z</time></trkpt><trkpt lat="45.2012826" lon="9.1036672"><ele>78.2</ele><time>2026-04-29T08:32:05.077Z</time></trkpt><trkpt lat="45.2012119" lon="9.1037501"><ele>80.0</ele><time>2026-04-29T08:32:06.078Z</time></trkpt><trkpt lat="45.2011441" lon="9.1038342"><ele>80.0</ele><time>2026-04-29T08:32:07.077Z</time></trkpt><trkpt lat="45.2010728" lon="9.1039154"><ele>80.0</ele><time>2026-04-29T08:32:08.077Z</time></trkpt><trkpt lat="45.2010007" lon="9.1039988"><ele>80.0</ele><time>2026-04-29T08:32:09.078Z</time></trkpt><trkpt lat="45.2009178" lon="9.1040838"><ele>80.0</ele><time>2026-04-29T08:32:10.077Z</time></trkpt><trkpt lat="45.2008371" lon="9.1041733"><ele>80.0</ele><time>2026-04-29T08:32:11.078Z</time></trkpt><trkpt lat="45.200747" lon="9.1042805"><ele>79.8</ele><time>2026-04-29T08:32:12.078Z</time></trkpt><trkpt lat="45.2006661" lon="9.104362"><ele>79.6</ele><time>2026-04-29T08:32:13.078Z</time></trkpt><trkpt lat="45.2005837" lon="9.1044555"><ele>79.4</ele><time>2026-04-29T08:32:14.078Z</time></trkpt><trkpt lat="45.2005009" lon="9.1045411"><ele>79.2</ele><time>2026-04-29T08:32:15.077Z</time></trkpt><trkpt lat="45.2004221" lon="9.1046223"><ele>79.0</ele><time>2026-04-29T08:32:16.076Z</time></trkpt><trkpt lat="45.200342" lon="9.1047046"><ele>79.0</ele><time>2026-04-29T08:32:17.077Z</time></trkpt><trkpt lat="45.2002648" lon="9.10479"><ele>79.0</ele><time>2026-04-29T08:32:18.077Z</time></trkpt><trkpt lat="45.2001851" lon="9.1048658"><ele>79.0</ele><time>2026-04-29T08:32:19.077Z</time></trkpt><trkpt lat="45.2000992" lon="9.1049389"><ele>79.0</ele><time>2026-04-29T08:32:20.077Z</time></trkpt><trkpt lat="45.2000155" lon="9.1050176"><ele>79.0</ele><time>2026-04-29T08:32:21.077Z</time></trkpt><trkpt lat="45.1999291" lon="9.1050967"><ele>78.8</ele><time>2026-04-29T08:32:22.076Z</time></trkpt><trkpt lat="45.1998458" lon="9.1051636"><ele>78.60000000000001</ele><time>2026-04-29T08:32:23.076Z</time></trkpt><trkpt lat="45.1997632" lon="9.1052353"><ele>78.4</ele><time>2026-04-29T08:32:24.076Z</time></trkpt><trkpt lat="45.1996792" lon="9.1053007"><ele>78.2</ele><time>2026-04-29T08:32:25.076Z</time></trkpt><trkpt lat="45.1996014" lon="9.1053473"><ele>78.0</ele><time>2026-04-29T08:32:26.076Z</time></trkpt><trkpt lat="45.1995254" lon="9.1054156"><ele>77.66666666666667</ele><time>2026-04-29T08:32:27.077Z</time></trkpt><trkpt lat="45.1994445" lon="9.1054789"><ele>77.33333333333333</ele><time>2026-04-29T08:32:28.077Z</time></trkpt><trkpt lat="45.1993668" lon="9.1055282"><ele>77.0</ele><time>2026-04-29T08:32:29.077Z</time></trkpt><trkpt lat="45.1992902" lon="9.1055876"><ele>76.66666666666666</ele><time>2026-04-29T08:32:30.076Z</time></trkpt><trkpt lat="45.199211" lon="9.1056502"><ele>76.33333333333333</ele><time>2026-04-29T08:32:31.077Z</time></trkpt><trkpt lat="45.199134" lon="9.1057245"><ele>76.0</ele><time>2026-04-29T08:32:32.076Z</time></trkpt><trkpt lat="45.199053" lon="9.1057812"><ele>74.5</ele><time>2026-04-29T08:32:33.077Z</time></trkpt><trkpt lat="45.1989749" lon="9.1058397"><ele>73.0</ele><time>2026-04-29T08:32:34.076Z</time></trkpt><trkpt lat="45.1989045" lon="9.1059087"><ele>71.5</ele><time>2026-04-29T08:32:35.077Z</time></trkpt><trkpt lat="45.1988412" lon="9.1059789"><ele>70.0</ele><time>2026-04-29T08:32:36.076Z</time></trkpt><trkpt lat="45.1987814" lon="9.106061"><ele>68.5</ele><time>2026-04-29T08:32:37.077Z</time></trkpt><trkpt lat="45.1987178" lon="9.1061409"><ele>67.0</ele><time>2026-04-29T08:32:38.076Z</time></trkpt><trkpt lat="45.1986606" lon="9.1062322"><ele>67.0</ele><time>2026-04-29T08:32:39.077Z</time></trkpt><trkpt lat="45.1986089" lon="9.1063277"><ele>67.0</ele><time>2026-04-29T08:32:40.076Z</time></trkpt><trkpt lat="45.1985724" lon="9.1064213"><ele>67.0</ele><time>2026-04-29T08:32:41.076Z</time></trkpt><trkpt lat="45.1985356" lon="9.1065144"><ele>67.0</ele><time>2026-04-29T08:32:42.077Z</time></trkpt><trkpt lat="45.1985046" lon="9.1066325"><ele>67.0</ele><time>2026-04-29T08:32:43.076Z</time></trkpt><trkpt lat="45.198478" lon="9.1067544"><ele>67.0</ele><time>2026-04-29T08:32:44.076Z</time></trkpt><trkpt lat="45.1984763" lon="9.1068733"><ele>67.8</ele><time>2026-04-29T08:32:45.076Z</time></trkpt><trkpt lat="45.1984556" lon="9.1069878"><ele>68.6</ele><time>2026-04-29T08:32:46.076Z</time></trkpt><trkpt lat="45.1984204" lon="9.107113"><ele>69.39999999999999</ele><time>2026-04-29T08:32:47.077Z</time></trkpt><trkpt lat="45.198391" lon="9.107237"><ele>70.2</ele><time>2026-04-29T08:32:48.076Z</time></trkpt><trkpt lat="45.19836" lon="9.1073685"><ele>71.0</ele><time>2026-04-29T08:32:49.077Z</time></trkpt><trkpt lat="45.1983308" lon="9.1075068"><ele>71.6</ele><time>2026-04-29T08:32:50.076Z</time></trkpt><trkpt lat="45.1982996" lon="9.1076331"><ele>72.19999999999999</ele><time>2026-04-29T08:32:51.077Z</time></trkpt><trkpt lat="45.1982688" lon="9.1077492"><ele>72.80000000000001</ele><time>2026-04-29T08:32:52.076Z</time></trkpt><trkpt lat="45.1982376" lon="9.1078803"><ele>73.4</ele><time>2026-04-29T08:32:53.076Z</time></trkpt><trkpt lat="45.1981989" lon="9.1080082"><ele>74.0</ele><time>2026-04-29T08:32:54.077Z</time></trkpt><trkpt lat="45.1981596" lon="9.1081504"><ele>73.60000000000001</ele><time>2026-04-29T08:32:55.077Z</time></trkpt><trkpt lat="45.1981175" lon="9.1082768"><ele>73.2</ele><time>2026-04-29T08:32:56.077Z</time></trkpt><trkpt lat="45.1980745" lon="9.1084086"><ele>72.80000000000001</ele><time>2026-04-29T08:32:57.076Z</time></trkpt><trkpt lat="45.198031" lon="9.1085403"><ele>72.4</ele><time>2026-04-29T08:32:58.077Z</time></trkpt><trkpt lat="45.197988" lon="9.1086686"><ele>72.0</ele><time>2026-04-29T08:32:59.077Z</time></trkpt><trkpt lat="45.1979408" lon="9.1087898"><ele>72.0</ele><time>2026-04-29T08:33:00.077Z</time></trkpt><trkpt lat="45.1978922" lon="9.1089211"><ele>72.0</ele><time>2026-04-29T08:33:01.076Z</time></trkpt><trkpt lat="45.1978404" lon="9.1090592"><ele>72.0</ele><time>2026-04-29T08:33:02.076Z</time></trkpt><trkpt lat="45.197795" lon="9.1091857"><ele>72.0</ele><time>2026-04-29T08:33:03.076Z</time></trkpt><trkpt lat="45.1977495" lon="9.1093179"><ele>72.0</ele><time>2026-04-29T08:33:04.076Z</time></trkpt><trkpt lat="45.1977006" lon="9.1094541"><ele>72.4</ele><time>2026-04-29T08:33:05.076Z</time></trkpt><trkpt lat="45.1976515" lon="9.1095749"><ele>72.80000000000001</ele><time>2026-04-29T08:33:06.076Z</time></trkpt><trkpt lat="45.1976117" lon="9.1096981"><ele>73.2</ele><time>2026-04-29T08:33:07.077Z</time></trkpt><trkpt lat="45.1975708" lon="9.1098196"><ele>73.60000000000001</ele><time>2026-04-29T08:33:08.077Z</time></trkpt><trkpt lat="45.1975244" lon="9.1099465"><ele>74.0</ele><time>2026-04-29T08:33:09.077Z</time></trkpt><trkpt lat="45.1974771" lon="9.1100665"><ele>74.0</ele><time>2026-04-29T08:33:10.077Z</time></trkpt><trkpt lat="45.1974383" lon="9.1101878"><ele>74.0</ele><time>2026-04-29T08:33:11.076Z</time></trkpt><trkpt lat="45.1973922" lon="9.1103094"><ele>74.0</ele><time>2026-04-29T08:33:12.077Z</time></trkpt><trkpt lat="45.1973563" lon="9.1104243"><ele>74.0</ele><time>2026-04-29T08:33:13.077Z</time></trkpt><trkpt lat="45.197317" lon="9.1105439"><ele>74.0</ele><time>2026-04-29T08:33:14.076Z</time></trkpt><trkpt lat="45.1972781" lon="9.1106734"><ele>74.0</ele><time>2026-04-29T08:33:15.077Z</time></trkpt><trkpt lat="45.1972376" lon="9.1107945"><ele>74.0</ele><time>2026-04-29T08:33:16.077Z</time></trkpt><trkpt lat="45.1971839" lon="9.1109127"><ele>74.0</ele><time>2026-04-29T08:33:17.076Z</time></trkpt><trkpt lat="45.1971483" lon="9.1110251"><ele>74.0</ele><time>2026-04-29T08:33:18.077Z</time></trkpt><trkpt lat="45.1971068" lon="9.1111473"><ele>74.0</ele><time>2026-04-29T08:33:19.076Z</time></trkpt><trkpt lat="45.1970613" lon="9.1112676"><ele>74.0</ele><time>2026-04-29T08:33:20.076Z</time></trkpt><trkpt lat="45.1970055" lon="9.1114022"><ele>74.0</ele><time>2026-04-29T08:33:21.077Z</time></trkpt><trkpt lat="45.1969585" lon="9.1115297"><ele>74.0</ele><time>2026-04-29T08:33:22.077Z</time></trkpt><trkpt lat="45.1969211" lon="9.1116532"><ele>74.0</ele><time>2026-04-29T08:33:23.077Z</time></trkpt><trkpt lat="45.1968826" lon="9.1117878"><ele>74.0</ele><time>2026-04-29T08:33:24.077Z</time></trkpt><trkpt lat="45.1968465" lon="9.1119159"><ele>74.2</ele><time>2026-04-29T08:33:25.076Z</time></trkpt><trkpt lat="45.1968041" lon="9.1120436"><ele>74.4</ele><time>2026-04-29T08:33:26.076Z</time></trkpt><trkpt lat="45.1967712" lon="9.112179"><ele>74.6</ele><time>2026-04-29T08:33:27.076Z</time></trkpt><trkpt lat="45.1967366" lon="9.1123007"><ele>74.8</ele><time>2026-04-29T08:33:28.077Z</time></trkpt><trkpt lat="45.1966943" lon="9.1124271"><ele>75.0</ele><time>2026-04-29T08:33:29.076Z</time></trkpt><trkpt lat="45.1966581" lon="9.1125608"><ele>75.2</ele><time>2026-04-29T08:33:30.076Z</time></trkpt><trkpt lat="45.1966216" lon="9.1126972"><ele>75.4</ele><time>2026-04-29T08:33:31.076Z</time></trkpt><trkpt lat="45.196585" lon="9.1128288"><ele>75.6</ele><time>2026-04-29T08:33:32.076Z</time></trkpt><trkpt lat="45.1965529" lon="9.112967"><ele>75.8</ele><time>2026-04-29T08:33:33.077Z</time></trkpt><trkpt lat="45.1965164" lon="9.1130928"><ele>76.0</ele><time>2026-04-29T08:33:34.077Z</time></trkpt><trkpt lat="45.1964857" lon="9.1132262"><ele>75.2</ele><time>2026-04-29T08:33:35.076Z</time></trkpt><trkpt lat="45.1964529" lon="9.1133522"><ele>74.39999999999999</ele><time>2026-04-29T08:33:36.076Z</time></trkpt><trkpt lat="45.1964172" lon="9.113481"><ele>73.6</ele><time>2026-04-29T08:33:37.076Z</time></trkpt><trkpt lat="45.1963851" lon="9.1136135"><ele>72.8</ele><time>2026-04-29T08:33:38.077Z</time></trkpt><trkpt lat="45.1963516" lon="9.1137436"><ele>72.0</ele><time>2026-04-29T08:33:39.076Z</time></trkpt><trkpt lat="45.1963146" lon="9.1138768"><ele>72.0</ele><time>2026-04-29T08:33:40.076Z</time></trkpt><trkpt lat="45.1962753" lon="9.1139975"><ele>72.0</ele><time>2026-04-29T08:33:41.077Z</time></trkpt><trkpt lat="45.1962434" lon="9.1141276"><ele>72.0</ele><time>2026-04-29T08:33:42.076Z</time></trkpt><trkpt lat="45.1962129" lon="9.1142383"><ele>72.0</ele><time>2026-04-29T08:33:43.076Z</time></trkpt><trkpt lat="45.1961836" lon="9.1143528"><ele>72.0</ele><time>2026-04-29T08:33:44.077Z</time></trkpt><trkpt lat="45.196154" lon="9.1144912"><ele>72.0</ele><time>2026-04-29T08:33:45.077Z</time></trkpt><trkpt lat="45.1961269" lon="9.1146257"><ele>72.0</ele><time>2026-04-29T08:33:46.077Z</time></trkpt><trkpt lat="45.1960984" lon="9.1147473"><ele>72.0</ele><time>2026-04-29T08:33:47.077Z</time></trkpt><trkpt lat="45.196072" lon="9.1148812"><ele>72.0</ele><time>2026-04-29T08:33:48.077Z</time></trkpt><trkpt lat="45.1960494" lon="9.1150128"><ele>72.0</ele><time>2026-04-29T08:33:49.077Z</time></trkpt><trkpt lat="45.1960292" lon="9.1151293"><ele>72.16666666666667</ele><time>2026-04-29T08:33:50.076Z</time></trkpt><trkpt lat="45.1959955" lon="9.1152661"><ele>72.33333333333333</ele><time>2026-04-29T08:33:51.076Z</time></trkpt><trkpt lat="45.1959781" lon="9.1153913"><ele>72.5</ele><time>2026-04-29T08:33:52.077Z</time></trkpt><trkpt lat="45.1959615" lon="9.1155178"><ele>72.66666666666666</ele><time>2026-04-29T08:33:53.077Z</time></trkpt><trkpt lat="45.1959514" lon="9.1156501"><ele>72.83333333333333</ele><time>2026-04-29T08:33:55.077Z</time></trkpt><trkpt lat="45.1959356" lon="9.1157457"><ele>73.0</ele><time>2026-04-29T08:33:58.077Z</time></trkpt><trkpt lat="45.1959185" lon="9.1158714"><ele>73.0</ele><time>2026-04-29T08:34:01.077Z</time></trkpt><trkpt lat="45.1958981" lon="9.116005"><ele>73.0</ele><time>2026-04-29T08:34:03.077Z</time></trkpt><trkpt lat="45.19589" lon="9.1160975"><ele>73.0</ele><time>2026-04-29T08:34:04.076Z</time></trkpt><trkpt lat="45.1958756" lon="9.1161953"><ele>73.0</ele><time>2026-04-29T08:34:05.077Z</time></trkpt><trkpt lat="45.1958539" lon="9.1163109"><ele>73.0</ele><time>2026-04-29T08:34:06.076Z</time></trkpt><trkpt lat="45.1958293" lon="9.1164401"><ele>73.0</ele><time>2026-04-29T08:34:07.077Z</time></trkpt><trkpt lat="45.1958091" lon="9.1165533"><ele>73.2</ele><time>2026-04-29T08:34:08.077Z</time></trkpt><trkpt lat="45.1957948" lon="9.116661"><ele>73.4</ele><time>2026-04-29T08:34:09.077Z</time></trkpt><trkpt lat="45.1957777" lon="9.1167918"><ele>73.60000000000001</ele><time>2026-04-29T08:34:10.077Z</time></trkpt><trkpt lat="45.1957596" lon="9.1169365"><ele>73.8</ele><time>2026-04-29T08:34:11.077Z</time></trkpt><trkpt lat="45.1957355" lon="9.1170703"><ele>74.0</ele><time>2026-04-29T08:34:12.076Z</time></trkpt><trkpt lat="45.1957116" lon="9.1171904"><ele>74.0</ele><time>2026-04-29T08:34:13.077Z</time></trkpt><trkpt lat="45.1956867" lon="9.1173283"><ele>74.0</ele><time>2026-04-29T08:34:14.076Z</time></trkpt><trkpt lat="45.1956601" lon="9.1174561"><ele>74.0</ele><time>2026-04-29T08:34:15.077Z</time></trkpt><trkpt lat="45.1956418" lon="9.1175925"><ele>74.0</ele><time>2026-04-29T08:34:16.077Z</time></trkpt><trkpt lat="45.1956161" lon="9.1177587"><ele>74.0</ele><time>2026-04-29T08:34:17.077Z</time></trkpt><trkpt lat="45.1955949" lon="9.1178965"><ele>74.0</ele><time>2026-04-29T08:34:18.077Z</time></trkpt><trkpt lat="45.1955762" lon="9.1180479"><ele>74.0</ele><time>2026-04-29T08:34:19.076Z</time></trkpt><trkpt lat="45.1955386" lon="9.1182015"><ele>74.0</ele><time>2026-04-29T08:34:20.076Z</time></trkpt><trkpt lat="45.1955139" lon="9.1183454"><ele>74.0</ele><time>2026-04-29T08:34:21.077Z</time></trkpt><trkpt lat="45.1954972" lon="9.1184666"><ele>74.0</ele><time>2026-04-29T08:34:22.076Z</time></trkpt><trkpt lat="45.1954801" lon="9.1186016"><ele>73.8</ele><time>2026-04-29T08:34:23.076Z</time></trkpt><trkpt lat="45.195464" lon="9.1187411"><ele>73.60000000000001</ele><time>2026-04-29T08:34:24.076Z</time></trkpt><trkpt lat="45.195452" lon="9.1188714"><ele>73.4</ele><time>2026-04-29T08:34:25.077Z</time></trkpt><trkpt lat="45.1954338" lon="9.1189968"><ele>73.2</ele><time>2026-04-29T08:34:26.077Z</time></trkpt><trkpt lat="45.1954131" lon="9.1191216"><ele>73.0</ele><time>2026-04-29T08:34:27.076Z</time></trkpt><trkpt lat="45.1953942" lon="9.1192573"><ele>72.8</ele><time>2026-04-29T08:34:28.077Z</time></trkpt><trkpt lat="45.1953724" lon="9.1194084"><ele>72.6</ele><time>2026-04-29T08:34:29.076Z</time></trkpt><trkpt lat="45.1953449" lon="9.1195631"><ele>72.4</ele><time>2026-04-29T08:34:30.076Z</time></trkpt><trkpt lat="45.1953165" lon="9.1197046"><ele>72.2</ele><time>2026-04-29T08:34:31.076Z</time></trkpt><trkpt lat="45.1952921" lon="9.1198346"><ele>72.0</ele><time>2026-04-29T08:34:32.077Z</time></trkpt><trkpt lat="45.1952644" lon="9.1199778"><ele>72.0</ele><time>2026-04-29T08:34:33.077Z</time></trkpt><trkpt lat="45.1952374" lon="9.1201107"><ele>72.0</ele><time>2026-04-29T08:34:34.076Z</time></trkpt><trkpt lat="45.19521" lon="9.1202495"><ele>72.0</ele><time>2026-04-29T08:34:35.077Z</time></trkpt><trkpt lat="45.195186" lon="9.12037"><ele>72.0</ele><time>2026-04-29T08:34:36.077Z</time></trkpt><trkpt lat="45.195159" lon="9.1204902"><ele>72.0</ele><time>2026-04-29T08:34:37.077Z</time></trkpt><trkpt lat="45.1951358" lon="9.1206097"><ele>72.0</ele><time>2026-04-29T08:34:38.076Z</time></trkpt><trkpt lat="45.1951117" lon="9.1207373"><ele>72.0</ele><time>2026-04-29T08:34:39.077Z</time></trkpt><trkpt lat="45.1950826" lon="9.1208786"><ele>72.0</ele><time>2026-04-29T08:34:40.077Z</time></trkpt><trkpt lat="45.1950675" lon="9.1210068"><ele>72.0</ele><time>2026-04-29T08:34:41.076Z</time></trkpt><trkpt lat="45.1950407" lon="9.121136"><ele>72.0</ele><time>2026-04-29T08:34:42.077Z</time></trkpt><trkpt lat="45.195018" lon="9.1212656"><ele>72.0</ele><time>2026-04-29T08:34:43.076Z</time></trkpt><trkpt lat="45.1949893" lon="9.1213945"><ele>72.0</ele><time>2026-04-29T08:34:44.076Z</time></trkpt><trkpt lat="45.1949629" lon="9.12151"><ele>72.0</ele><time>2026-04-29T08:34:45.076Z</time></trkpt><trkpt lat="45.1949414" lon="9.1216205"><ele>72.0</ele><time>2026-04-29T08:34:46.077Z</time></trkpt><trkpt lat="45.1949239" lon="9.1217286"><ele>72.0</ele><time>2026-04-29T08:34:47.073Z</time></trkpt><trkpt lat="45.1949013" lon="9.1218635"><ele>72.0</ele><time>2026-04-29T08:34:48.076Z</time></trkpt><trkpt lat="45.1948867" lon="9.1219864"><ele>72.0</ele><time>2026-04-29T08:34:49.076Z</time></trkpt><trkpt lat="45.1948622" lon="9.1221224"><ele>72.0</ele><time>2026-04-29T08:34:50.076Z</time></trkpt><trkpt lat="45.1948449" lon="9.1222495"><ele>72.0</ele><time>2026-04-29T08:34:51.077Z</time></trkpt><trkpt lat="45.1948207" lon="9.1223823"><ele>72.0</ele><time>2026-04-29T08:34:52.076Z</time></trkpt><trkpt lat="45.1948057" lon="9.1225286"><ele>72.0</ele><time>2026-04-29T08:34:53.076Z</time></trkpt><trkpt lat="45.1947811" lon="9.1226688"><ele>71.2</ele><time>2026-04-29T08:34:54.077Z</time></trkpt><trkpt lat="45.1947667" lon="9.1228202"><ele>70.4</ele><time>2026-04-29T08:34:55.077Z</time></trkpt><trkpt lat="45.1947507" lon="9.1229844"><ele>69.6</ele><time>2026-04-29T08:34:56.077Z</time></trkpt><trkpt lat="45.1947363" lon="9.1231336"><ele>68.8</ele><time>2026-04-29T08:34:57.076Z</time></trkpt><trkpt lat="45.1947279" lon="9.1232927"><ele>68.0</ele><time>2026-04-29T08:34:58.077Z</time></trkpt><trkpt lat="45.1947146" lon="9.1234444"><ele>67.8</ele><time>2026-04-29T08:34:59.076Z</time></trkpt><trkpt lat="45.1947013" lon="9.1235906"><ele>67.6</ele><time>2026-04-29T08:35:00.077Z</time></trkpt><trkpt lat="45.1946915" lon="9.1237225"><ele>67.4</ele><time>2026-04-29T08:35:01.076Z</time></trkpt><trkpt lat="45.1946778" lon="9.1238659"><ele>67.2</ele><time>2026-04-29T08:35:02.077Z</time></trkpt><trkpt lat="45.1946672" lon="9.1239961"><ele>67.0</ele><time>2026-04-29T08:35:03.077Z</time></trkpt><trkpt lat="45.1946556" lon="9.1241206"><ele>67.0</ele><time>2026-04-29T08:35:04.076Z</time></trkpt><trkpt lat="45.1946407" lon="9.1242442"><ele>67.0</ele><time>2026-04-29T08:35:05.076Z</time></trkpt><trkpt lat="45.1946274" lon="9.1243838"><ele>67.0</ele><time>2026-04-29T08:35:06.076Z</time></trkpt><trkpt lat="45.1946119" lon="9.124514"><ele>67.0</ele><time>2026-04-29T08:35:07.076Z</time></trkpt><trkpt lat="45.1946003" lon="9.1246456"><ele>67.0</ele><time>2026-04-29T08:35:08.076Z</time></trkpt><trkpt lat="45.19458" lon="9.1247762"><ele>66.8</ele><time>2026-04-29T08:35:09.077Z</time></trkpt><trkpt lat="45.1945695" lon="9.1249048"><ele>66.6</ele><time>2026-04-29T08:35:10.077Z</time></trkpt><trkpt lat="45.1945551" lon="9.125039"><ele>66.39999999999999</ele><time>2026-04-29T08:35:11.077Z</time></trkpt><trkpt lat="45.1945388" lon="9.1251593"><ele>66.2</ele><time>2026-04-29T08:35:12.077Z</time></trkpt><trkpt lat="45.1945212" lon="9.1252843"><ele>66.0</ele><time>2026-04-29T08:35:13.077Z</time></trkpt><trkpt lat="45.1945069" lon="9.1254227"><ele>66.0</ele><time>2026-04-29T08:35:14.076Z</time></trkpt><trkpt lat="45.1945008" lon="9.1255489"><ele>66.0</ele><time>2026-04-29T08:35:15.077Z</time></trkpt><trkpt lat="45.1944864" lon="9.1256843"><ele>66.0</ele><time>2026-04-29T08:35:16.076Z</time></trkpt><trkpt lat="45.194475" lon="9.1258138"><ele>66.0</ele><time>2026-04-29T08:35:17.077Z</time></trkpt><trkpt lat="45.1944695" lon="9.1259199"><ele>66.0</ele><time>2026-04-29T08:35:18.076Z</time></trkpt><trkpt lat="45.1944625" lon="9.1260443"><ele>66.0</ele><time>2026-04-29T08:35:19.076Z</time></trkpt><trkpt lat="45.1944524" lon="9.1261707"><ele>66.0</ele><time>2026-04-29T08:35:20.077Z</time></trkpt><trkpt lat="45.1944343" lon="9.1263214"><ele>66.0</ele><time>2026-04-29T08:35:21.077Z</time></trkpt><trkpt lat="45.1944244" lon="9.1264497"><ele>66.0</ele><time>2026-04-29T08:35:22.076Z</time></trkpt><trkpt lat="45.1944116" lon="9.1265739"><ele>66.0</ele><time>2026-04-29T08:35:23.077Z</time></trkpt><trkpt lat="45.1944117" lon="9.1266955"><ele>66.0</ele><time>2026-04-29T08:35:24.076Z</time></trkpt><trkpt lat="45.1944064" lon="9.1267975"><ele>66.0</ele><time>2026-04-29T08:35:25.076Z</time></trkpt><trkpt lat="45.1944054" lon="9.1269096"><ele>66.2</ele><time>2026-04-29T08:35:27.077Z</time></trkpt><trkpt lat="45.1944072" lon="9.1270486"><ele>66.39999999999999</ele><time>2026-04-29T08:36:04.077Z</time></trkpt><trkpt lat="45.1944057" lon="9.1272139"><ele>66.6</ele><time>2026-04-29T08:36:06.076Z</time></trkpt><trkpt lat="45.1944104" lon="9.1273708"><ele>66.8</ele><time>2026-04-29T08:36:08.077Z</time></trkpt><trkpt lat="45.1944547" lon="9.1274963"><ele>67.0</ele><time>2026-04-29T08:36:10.077Z</time></trkpt><trkpt lat="45.1945581" lon="9.1275317"><ele>67.0</ele><time>2026-04-29T08:36:12.077Z</time></trkpt><trkpt lat="45.1946965" lon="9.1275023"><ele>67.0</ele><time>2026-04-29T08:36:14.076Z</time></trkpt><trkpt lat="45.194779" lon="9.1274888"><ele>67.0</ele><time>2026-04-29T08:36:15.076Z</time></trkpt><trkpt lat="45.1948704" lon="9.1274807"><ele>67.0</ele><time>2026-04-29T08:36:16.077Z</time></trkpt><trkpt lat="45.1949692" lon="9.1274699"><ele>67.0</ele><time>2026-04-29T08:36:17.076Z</time></trkpt><trkpt lat="45.1950711" lon="9.1274628"><ele>67.0</ele><time>2026-04-29T08:36:18.076Z</time></trkpt><trkpt lat="45.1951691" lon="9.1274611"><ele>67.0</ele><time>2026-04-29T08:36:19.077Z</time></trkpt><trkpt lat="45.1952823" lon="9.1274592"><ele>67.0</ele><time>2026-04-29T08:36:20.076Z</time></trkpt><trkpt lat="45.1953833" lon="9.1274603"><ele>67.0</ele><time>2026-04-29T08:36:21.076Z</time></trkpt><trkpt lat="45.1954869" lon="9.1274621"><ele>67.0</ele><time>2026-04-29T08:36:22.077Z</time></trkpt><trkpt lat="45.1955827" lon="9.1274615"><ele>66.8</ele><time>2026-04-29T08:36:23.076Z</time></trkpt><trkpt lat="45.1956731" lon="9.1274572"><ele>66.6</ele><time>2026-04-29T08:36:24.076Z</time></trkpt><trkpt lat="45.1957813" lon="9.1274517"><ele>66.39999999999999</ele><time>2026-04-29T08:36:25.077Z</time></trkpt><trkpt lat="45.195892" lon="9.1274557"><ele>66.2</ele><time>2026-04-29T08:36:26.076Z</time></trkpt><trkpt lat="45.1960082" lon="9.1274517"><ele>66.0</ele><time>2026-04-29T08:36:27.076Z</time></trkpt><trkpt lat="45.196126" lon="9.1274606"><ele>66.0</ele><time>2026-04-29T08:36:28.077Z</time></trkpt><trkpt lat="45.196234" lon="9.1274788"><ele>66.0</ele><time>2026-04-29T08:36:29.077Z</time></trkpt><trkpt lat="45.1963478" lon="9.1275067"><ele>66.0</ele><time>2026-04-29T08:36:30.077Z</time></trkpt><trkpt lat="45.1964647" lon="9.1275489"><ele>66.0</ele><time>2026-04-29T08:36:31.077Z</time></trkpt><trkpt lat="45.196575" lon="9.1275998"><ele>67.0</ele><time>2026-04-29T08:36:32.076Z</time></trkpt><trkpt lat="45.1966591" lon="9.1276652"><ele>68.0</ele><time>2026-04-29T08:36:33.076Z</time></trkpt><trkpt lat="45.196755" lon="9.1277557"><ele>69.0</ele><time>2026-04-29T08:36:34.077Z</time></trkpt><trkpt lat="45.1968544" lon="9.1278538"><ele>70.0</ele><time>2026-04-29T08:36:35.077Z</time></trkpt><trkpt lat="45.196959" lon="9.1279542"><ele>70.0</ele><time>2026-04-29T08:36:36.076Z</time></trkpt><trkpt lat="45.1970723" lon="9.1280498"><ele>70.0</ele><time>2026-04-29T08:36:37.077Z</time></trkpt><trkpt lat="45.1971787" lon="9.1281438"><ele>70.0</ele><time>2026-04-29T08:36:38.077Z</time></trkpt><trkpt lat="45.197269" lon="9.128192"><ele>70.0</ele><time>2026-04-29T08:36:39.076Z</time></trkpt><trkpt lat="45.1974257" lon="9.1281915"><ele>71.2</ele><time>2026-04-29T08:36:41.077Z</time></trkpt><trkpt lat="45.1975328" lon="9.128208"><ele>72.4</ele><time>2026-04-29T08:36:42.077Z</time></trkpt><trkpt lat="45.1976235" lon="9.1282072"><ele>73.6</ele><time>2026-04-29T08:36:43.076Z</time></trkpt><trkpt lat="45.1977117" lon="9.1282104"><ele>74.8</ele><time>2026-04-29T08:36:44.076Z</time></trkpt><trkpt lat="45.1978187" lon="9.1282215"><ele>76.0</ele><time>2026-04-29T08:36:45.076Z</time></trkpt><trkpt lat="45.1979239" lon="9.1282618"><ele>76.0</ele><time>2026-04-29T08:36:46.076Z</time></trkpt><trkpt lat="45.1980205" lon="9.1283088"><ele>76.0</ele><time>2026-04-29T08:36:47.076Z</time></trkpt><trkpt lat="45.1981054" lon="9.1283759"><ele>76.0</ele><time>2026-04-29T08:36:48.076Z</time></trkpt><trkpt lat="45.1981925" lon="9.128451"><ele>76.0</ele><time>2026-04-29T08:36:49.076Z</time></trkpt><trkpt lat="45.1982715" lon="9.128546"><ele>76.0</ele><time>2026-04-29T08:36:50.077Z</time></trkpt><trkpt lat="45.1983596" lon="9.1286607"><ele>76.5</ele><time>2026-04-29T08:36:51.076Z</time></trkpt><trkpt lat="45.1984461" lon="9.1287872"><ele>77.0</ele><time>2026-04-29T08:36:52.077Z</time></trkpt><trkpt lat="45.1985177" lon="9.1289122"><ele>77.5</ele><time>2026-04-29T08:36:53.077Z</time></trkpt><trkpt lat="45.1985938" lon="9.1290498"><ele>78.0</ele><time>2026-04-29T08:36:54.077Z</time></trkpt><trkpt lat="45.198662" lon="9.1291949"><ele>78.0</ele><time>2026-04-29T08:36:55.077Z</time></trkpt><trkpt lat="45.1987287" lon="9.1293325"><ele>78.0</ele><time>2026-04-29T08:36:56.076Z</time></trkpt><trkpt lat="45.1987946" lon="9.1294655"><ele>78.0</ele><time>2026-04-29T08:36:57.077Z</time></trkpt><trkpt lat="45.1988549" lon="9.1295795"><ele>78.0</ele><time>2026-04-29T08:36:58.076Z</time></trkpt><trkpt lat="45.1989213" lon="9.1297149"><ele>78.0</ele><time>2026-04-29T08:36:59.077Z</time></trkpt><trkpt lat="45.1989967" lon="9.1298358"><ele>78.4</ele><time>2026-04-29T08:37:00.076Z</time></trkpt><trkpt lat="45.1990663" lon="9.1299478"><ele>78.8</ele><time>2026-04-29T08:37:01.077Z</time></trkpt><trkpt lat="45.1991253" lon="9.1300548"><ele>79.2</ele><time>2026-04-29T08:37:02.076Z</time></trkpt><trkpt lat="45.1991864" lon="9.1301661"><ele>79.6</ele><time>2026-04-29T08:37:03.076Z</time></trkpt><trkpt lat="45.1992383" lon="9.1302471"><ele>80.0</ele><time>2026-04-29T08:37:04.077Z</time></trkpt><trkpt lat="45.1993025" lon="9.1303594"><ele>80.0</ele><time>2026-04-29T08:37:06.077Z</time></trkpt><trkpt lat="45.1993348" lon="9.130442"><ele>80.0</ele><time>2026-04-29T08:37:07.077Z</time></trkpt><trkpt lat="45.1993541" lon="9.1305342"><ele>80.0</ele><time>2026-04-29T08:37:08.076Z</time></trkpt><trkpt lat="45.1993731" lon="9.130646"><ele>80.0</ele><time>2026-04-29T08:37:09.077Z</time></trkpt><trkpt lat="45.1994274" lon="9.130789"><ele>80.0</ele><time>2026-04-29T08:37:11.076Z</time></trkpt><trkpt lat="45.1995367" lon="9.1308478"><ele>80.0</ele><time>2026-04-29T08:37:13.077Z</time></trkpt><trkpt lat="45.199601" lon="9.1308602"><ele>80.0</ele><time>2026-04-29T08:37:14.077Z</time></trkpt><trkpt lat="45.1996773" lon="9.1308809"><ele>80.0</ele><time>2026-04-29T08:37:15.076Z</time></trkpt><trkpt lat="45.1997662" lon="9.1309151"><ele>80.0</ele><time>2026-04-29T08:37:16.076Z</time></trkpt><trkpt lat="45.1998399" lon="9.1309707"><ele>80.0</ele><time>2026-04-29T08:37:17.077Z</time></trkpt><trkpt lat="45.1999167" lon="9.1310377"><ele>80.0</ele><time>2026-04-29T08:37:18.076Z</time></trkpt><trkpt lat="45.1999926" lon="9.1310988"><ele>80.0</ele><time>2026-04-29T08:37:19.077Z</time></trkpt><trkpt lat="45.2000717" lon="9.1311659"><ele>80.0</ele><time>2026-04-29T08:37:20.076Z</time></trkpt><trkpt lat="45.200167" lon="9.1312352"><ele>80.0</ele><time>2026-04-29T08:37:21.076Z</time></trkpt><trkpt lat="45.2002533" lon="9.1313084"><ele>80.0</ele><time>2026-04-29T08:37:22.076Z</time></trkpt><trkpt lat="45.20035" lon="9.131381"><ele>80.0</ele><time>2026-04-29T08:37:23.076Z</time></trkpt><trkpt lat="45.2004488" lon="9.131448"><ele>80.0</ele><time>2026-04-29T08:37:24.077Z</time></trkpt><trkpt lat="45.2005509" lon="9.1315105"><ele>79.8</ele><time>2026-04-29T08:37:25.076Z</time></trkpt><trkpt lat="45.200647" lon="9.1315748"><ele>79.6</ele><time>2026-04-29T08:37:26.077Z</time></trkpt><trkpt lat="45.2007487" lon="9.1316345"><ele>79.4</ele><time>2026-04-29T08:37:27.076Z</time></trkpt><trkpt lat="45.2008495" lon="9.131681"><ele>79.2</ele><time>2026-04-29T08:37:28.077Z</time></trkpt><trkpt lat="45.2009555" lon="9.1317363"><ele>79.0</ele><time>2026-04-29T08:37:29.076Z</time></trkpt><trkpt lat="45.2010518" lon="9.1318006"><ele>79.0</ele><time>2026-04-29T08:37:30.077Z</time></trkpt><trkpt lat="45.2011559" lon="9.1318579"><ele>79.0</ele><time>2026-04-29T08:37:31.077Z</time></trkpt><trkpt lat="45.2012482" lon="9.1319254"><ele>79.0</ele><time>2026-04-29T08:37:32.076Z</time></trkpt><trkpt lat="45.2013352" lon="9.131997"><ele>79.0</ele><time>2026-04-29T08:37:33.077Z</time></trkpt><trkpt lat="45.2014188" lon="9.1320811"><ele>79.0</ele><time>2026-04-29T08:37:34.077Z</time></trkpt><trkpt lat="45.2014971" lon="9.1321796"><ele>79.0</ele><time>2026-04-29T08:37:35.077Z</time></trkpt><trkpt lat="45.2015705" lon="9.1322769"><ele>79.0</ele><time>2026-04-29T08:37:36.076Z</time></trkpt><trkpt lat="45.2016531" lon="9.1323708"><ele>79.0</ele><time>2026-04-29T08:37:37.077Z</time></trkpt><trkpt lat="45.2017233" lon="9.1324786"><ele>79.0</ele><time>2026-04-29T08:37:38.077Z</time></trkpt><trkpt lat="45.2017963" lon="9.1325767"><ele>79.0</ele><time>2026-04-29T08:37:39.076Z</time></trkpt><trkpt lat="45.2018542" lon="9.1326626"><ele>79.0</ele><time>2026-04-29T08:37:40.076Z</time></trkpt><trkpt lat="45.2019316" lon="9.1327909"><ele>79.0</ele><time>2026-04-29T08:37:42.076Z</time></trkpt><trkpt lat="45.2019917" lon="9.1329064"><ele>79.0</ele><time>2026-04-29T08:37:44.077Z</time></trkpt><trkpt lat="45.2020508" lon="9.1330136"><ele>79.0</ele><time>2026-04-29T08:37:46.076Z</time></trkpt><trkpt lat="45.2020564" lon="9.1331524"><ele>79.0</ele><time>2026-04-29T08:37:48.077Z</time></trkpt><trkpt lat="45.2020223" lon="9.1333139"><ele>79.2</ele><time>2026-04-29T08:37:50.077Z</time></trkpt><trkpt lat="45.201974" lon="9.1334056"><ele>79.4</ele><time>2026-04-29T08:37:51.076Z</time></trkpt><trkpt lat="45.2019169" lon="9.1335054"><ele>79.6</ele><time>2026-04-29T08:37:52.077Z</time></trkpt><trkpt lat="45.2018484" lon="9.1336088"><ele>79.8</ele><time>2026-04-29T08:37:53.077Z</time></trkpt><trkpt lat="45.2017707" lon="9.1337296"><ele>80.0</ele><time>2026-04-29T08:37:54.077Z</time></trkpt><trkpt lat="45.2016887" lon="9.1338534"><ele>80.0</ele><time>2026-04-29T08:37:55.077Z</time></trkpt><trkpt lat="45.201606" lon="9.1339808"><ele>80.0</ele><time>2026-04-29T08:37:56.076Z</time></trkpt><trkpt lat="45.2015194" lon="9.1341144"><ele>80.0</ele><time>2026-04-29T08:37:57.076Z</time></trkpt><trkpt lat="45.2014316" lon="9.134243"><ele>80.0</ele><time>2026-04-29T08:37:58.077Z</time></trkpt><trkpt lat="45.201339" lon="9.1343812"><ele>80.75</ele><time>2026-04-29T08:37:59.076Z</time></trkpt><trkpt lat="45.2012562" lon="9.1345107"><ele>81.5</ele><time>2026-04-29T08:38:00.077Z</time></trkpt><trkpt lat="45.2011723" lon="9.1346391"><ele>82.25</ele><time>2026-04-29T08:38:01.077Z</time></trkpt><trkpt lat="45.2010889" lon="9.1347702"><ele>83.0</ele><time>2026-04-29T08:38:02.076Z</time></trkpt><trkpt lat="45.2010021" lon="9.1349014"><ele>83.0</ele><time>2026-04-29T08:38:03.076Z</time></trkpt><trkpt lat="45.2009213" lon="9.1350265"><ele>83.0</ele><time>2026-04-29T08:38:04.076Z</time></trkpt><trkpt lat="45.2008394" lon="9.1351502"><ele>83.0</ele><time>2026-04-29T08:38:05.076Z</time></trkpt><trkpt lat="45.2007632" lon="9.1352659"><ele>83.0</ele><time>2026-04-29T08:38:06.077Z</time></trkpt><trkpt lat="45.2006859" lon="9.1353756"><ele>83.2</ele><time>2026-04-29T08:38:07.076Z</time></trkpt><trkpt lat="45.2006111" lon="9.1354845"><ele>83.4</ele><time>2026-04-29T08:38:08.076Z</time></trkpt><trkpt lat="45.2005376" lon="9.1355794"><ele>83.60000000000001</ele><time>2026-04-29T08:38:09.076Z</time></trkpt><trkpt lat="45.2004644" lon="9.1356867"><ele>83.80000000000001</ele><time>2026-04-29T08:38:10.076Z</time></trkpt><trkpt lat="45.2003877" lon="9.1357978"><ele>84.0</ele><time>2026-04-29T08:38:11.077Z</time></trkpt><trkpt lat="45.2003106" lon="9.135917"><ele>83.5</ele><time>2026-04-29T08:38:12.076Z</time></trkpt><trkpt lat="45.2002276" lon="9.1360318"><ele>83.0</ele><time>2026-04-29T08:38:13.076Z</time></trkpt><trkpt lat="45.2001451" lon="9.1361657"><ele>82.5</ele><time>2026-04-29T08:38:14.076Z</time></trkpt><trkpt lat="45.200059" lon="9.136288"><ele>82.0</ele><time>2026-04-29T08:38:15.076Z</time></trkpt><trkpt lat="45.1999756" lon="9.136421"><ele>82.0</ele><time>2026-04-29T08:38:16.076Z</time></trkpt><trkpt lat="45.1998922" lon="9.1365557"><ele>82.0</ele><time>2026-04-29T08:38:17.077Z</time></trkpt><trkpt lat="45.1998076" lon="9.1366868"><ele>82.0</ele><time>2026-04-29T08:38:18.076Z</time></trkpt><trkpt lat="45.1997255" lon="9.1368179"><ele>82.0</ele><time>2026-04-29T08:38:19.076Z</time></trkpt><trkpt lat="45.1996457" lon="9.1369448"><ele>82.0</ele><time>2026-04-29T08:38:20.076Z</time></trkpt><trkpt lat="45.1995665" lon="9.1370756"><ele>82.0</ele><time>2026-04-29T08:38:21.076Z</time></trkpt><trkpt lat="45.199481" lon="9.1372015"><ele>82.0</ele><time>2026-04-29T08:38:22.076Z</time></trkpt><trkpt lat="45.1994048" lon="9.1373329"><ele>82.0</ele><time>2026-04-29T08:38:23.077Z</time></trkpt><trkpt lat="45.1993188" lon="9.1374635"><ele>82.0</ele><time>2026-04-29T08:38:24.077Z</time></trkpt><trkpt lat="45.1992339" lon="9.1375876"><ele>82.0</ele><time>2026-04-29T08:38:25.077Z</time></trkpt><trkpt lat="45.1991511" lon="9.1377019"><ele>82.0</ele><time>2026-04-29T08:38:26.076Z</time></trkpt><trkpt lat="45.199066" lon="9.1378308"><ele>82.0</ele><time>2026-04-29T08:38:27.076Z</time></trkpt><trkpt lat="45.1989861" lon="9.1379662"><ele>81.25</ele><time>2026-04-29T08:38:28.076Z</time></trkpt><trkpt lat="45.1989021" lon="9.1381058"><ele>80.5</ele><time>2026-04-29T08:38:29.077Z</time></trkpt><trkpt lat="45.198819" lon="9.1382512"><ele>79.75</ele><time>2026-04-29T08:38:30.077Z</time></trkpt><trkpt lat="45.1987402" lon="9.1384004"><ele>79.0</ele><time>2026-04-29T08:38:31.077Z</time></trkpt><trkpt lat="45.1986589" lon="9.1385476"><ele>79.0</ele><time>2026-04-29T08:38:32.077Z</time></trkpt><trkpt lat="45.1985825" lon="9.1386967"><ele>79.0</ele><time>2026-04-29T08:38:33.077Z</time></trkpt><trkpt lat="45.1985051" lon="9.1388641"><ele>79.0</ele><time>2026-04-29T08:38:34.076Z</time></trkpt><trkpt lat="45.1984279" lon="9.1390474"><ele>79.0</ele><time>2026-04-29T08:38:35.076Z</time></trkpt><trkpt lat="45.1983515" lon="9.1392205"><ele>79.25</ele><time>2026-04-29T08:38:36.076Z</time></trkpt><trkpt lat="45.1982771" lon="9.1394014"><ele>79.5</ele><time>2026-04-29T08:38:37.077Z</time></trkpt><trkpt lat="45.1982048" lon="9.1395711"><ele>79.75</ele><time>2026-04-29T08:38:38.076Z</time></trkpt><trkpt lat="45.1981406" lon="9.1397319"><ele>80.0</ele><time>2026-04-29T08:38:39.077Z</time></trkpt><trkpt lat="45.198066" lon="9.1398992"><ele>80.0</ele><time>2026-04-29T08:38:40.077Z</time></trkpt><trkpt lat="45.1980147" lon="9.1400343"><ele>80.0</ele><time>2026-04-29T08:38:41.077Z</time></trkpt><trkpt lat="45.1979573" lon="9.1401304"><ele>80.0</ele><time>2026-04-29T08:38:42.077Z</time></trkpt><trkpt lat="45.1979124" lon="9.1401996"><ele>80.0</ele><time>2026-04-29T08:38:43.076Z</time></trkpt><trkpt lat="45.1978293" lon="9.1402663"><ele>80.0</ele><time>2026-04-29T08:38:45.076Z</time></trkpt><trkpt lat="45.1977054" lon="9.1403275"><ele>80.0</ele><time>2026-04-29T08:38:47.077Z</time></trkpt><trkpt lat="45.1976316" lon="9.1403599"><ele>80.0</ele><time>2026-04-29T08:38:48.076Z</time></trkpt><trkpt lat="45.1975481" lon="9.1403995"><ele>80.0</ele><time>2026-04-29T08:38:49.077Z</time></trkpt><trkpt lat="45.1974483" lon="9.1404408"><ele>80.0</ele><time>2026-04-29T08:38:50.076Z</time></trkpt><trkpt lat="45.1973514" lon="9.140483"><ele>80.0</ele><time>2026-04-29T08:38:51.077Z</time></trkpt><trkpt lat="45.1972559" lon="9.1405322"><ele>80.0</ele><time>2026-04-29T08:38:52.076Z</time></trkpt><trkpt lat="45.1971578" lon="9.1405826"><ele>80.0</ele><time>2026-04-29T08:38:53.076Z</time></trkpt><trkpt lat="45.197052" lon="9.1406365"><ele>80.0</ele><time>2026-04-29T08:38:54.076Z</time></trkpt><trkpt lat="45.1969534" lon="9.1406922"><ele>80.0</ele><time>2026-04-29T08:38:55.077Z</time></trkpt><trkpt lat="45.1968541" lon="9.1407567"><ele>80.0</ele><time>2026-04-29T08:38:56.076Z</time></trkpt><trkpt lat="45.1967517" lon="9.1408109"><ele>79.8</ele><time>2026-04-29T08:38:57.076Z</time></trkpt><trkpt lat="45.1966528" lon="9.1408775"><ele>79.6</ele><time>2026-04-29T08:38:58.076Z</time></trkpt><trkpt lat="45.1965567" lon="9.1409455"><ele>79.4</ele><time>2026-04-29T08:38:59.076Z</time></trkpt><trkpt lat="45.1964618" lon="9.1410176"><ele>79.2</ele><time>2026-04-29T08:39:00.077Z</time></trkpt><trkpt lat="45.1963654" lon="9.1411008"><ele>79.0</ele><time>2026-04-29T08:39:01.077Z</time></trkpt><trkpt lat="45.1962708" lon="9.1411795"><ele>79.2</ele><time>2026-04-29T08:39:02.077Z</time></trkpt><trkpt lat="45.1961768" lon="9.1412614"><ele>79.4</ele><time>2026-04-29T08:39:03.076Z</time></trkpt><trkpt lat="45.1960802" lon="9.1413384"><ele>79.6</ele><time>2026-04-29T08:39:04.077Z</time></trkpt><trkpt lat="45.1959823" lon="9.1414188"><ele>79.8</ele><time>2026-04-29T08:39:05.077Z</time></trkpt><trkpt lat="45.1958838" lon="9.1414985"><ele>80.0</ele><time>2026-04-29T08:39:06.076Z</time></trkpt><trkpt lat="45.19579" lon="9.1415732"><ele>80.0</ele><time>2026-04-29T08:39:07.076Z</time></trkpt><trkpt lat="45.1956964" lon="9.1416521"><ele>80.0</ele><time>2026-04-29T08:39:08.077Z</time></trkpt><trkpt lat="45.1956048" lon="9.1417286"><ele>80.0</ele><time>2026-04-29T08:39:09.076Z</time></trkpt><trkpt lat="45.1955137" lon="9.1418019"><ele>80.0</ele><time>2026-04-29T08:39:10.076Z</time></trkpt><trkpt lat="45.1954288" lon="9.1418737"><ele>80.0</ele><time>2026-04-29T08:39:11.076Z</time></trkpt><trkpt lat="45.1953475" lon="9.1419484"><ele>79.5</ele><time>2026-04-29T08:39:12.077Z</time></trkpt><trkpt lat="45.1952595" lon="9.142019"><ele>79.0</ele><time>2026-04-29T08:39:13.077Z</time></trkpt><trkpt lat="45.1951881" lon="9.1420916"><ele>78.5</ele><time>2026-04-29T08:39:14.077Z</time></trkpt><trkpt lat="45.1951173" lon="9.1421557"><ele>78.0</ele><time>2026-04-29T08:39:15.076Z</time></trkpt><trkpt lat="45.1950461" lon="9.1422187"><ele>77.5</ele><time>2026-04-29T08:39:16.077Z</time></trkpt><trkpt lat="45.1949741" lon="9.142278"><ele>77.0</ele><time>2026-04-29T08:39:17.077Z</time></trkpt><trkpt lat="45.1949045" lon="9.1423361"><ele>77.16666666666667</ele><time>2026-04-29T08:39:18.077Z</time></trkpt><trkpt lat="45.1948375" lon="9.1423911"><ele>77.33333333333334</ele><time>2026-04-29T08:39:19.077Z</time></trkpt><trkpt lat="45.1947763" lon="9.1424378"><ele>77.5</ele><time>2026-04-29T08:39:20.077Z</time></trkpt><trkpt lat="45.1947194" lon="9.1424817"><ele>77.66666666666667</ele><time>2026-04-29T08:39:21.076Z</time></trkpt><trkpt lat="45.1946314" lon="9.1425491"><ele>77.83333333333333</ele><time>2026-04-29T08:39:23.076Z</time></trkpt><trkpt lat="45.1945694" lon="9.1425986"><ele>78.0</ele><time>2026-04-29T08:39:47.076Z</time></trkpt><trkpt lat="45.1945045" lon="9.14265"><ele>78.0</ele><time>2026-04-29T08:39:49.077Z</time></trkpt><trkpt lat="45.1944404" lon="9.1426899"><ele>78.0</ele><time>2026-04-29T08:39:51.077Z</time></trkpt><trkpt lat="45.1943711" lon="9.1427444"><ele>78.0</ele><time>2026-04-29T08:39:53.076Z</time></trkpt><trkpt lat="45.1942901" lon="9.1428206"><ele>78.0</ele><time>2026-04-29T08:39:55.076Z</time></trkpt><trkpt lat="45.1942101" lon="9.1429143"><ele>78.0</ele><time>2026-04-29T08:39:57.076Z</time></trkpt><trkpt lat="45.1941127" lon="9.1430137"><ele>78.0</ele><time>2026-04-29T08:39:59.077Z</time></trkpt><trkpt lat="45.1940577" lon="9.1430597"><ele>78.0</ele><time>2026-04-29T08:40:00.077Z</time></trkpt><trkpt lat="45.1939973" lon="9.1431053"><ele>78.0</ele><time>2026-04-29T08:40:01.076Z</time></trkpt><trkpt lat="45.1939364" lon="9.1431556"><ele>78.0</ele><time>2026-04-29T08:40:02.076Z</time></trkpt><trkpt lat="45.1938616" lon="9.1432064"><ele>78.0</ele><time>2026-04-29T08:40:03.076Z</time></trkpt><trkpt lat="45.1937894" lon="9.1432645"><ele>78.0</ele><time>2026-04-29T08:40:04.077Z</time></trkpt><trkpt lat="45.1937144" lon="9.1433179"><ele>77.83333333333333</ele><time>2026-04-29T08:40:05.077Z</time></trkpt><trkpt lat="45.1936376" lon="9.1433726"><ele>77.66666666666667</ele><time>2026-04-29T08:40:06.077Z</time></trkpt><trkpt lat="45.1935706" lon="9.1434329"><ele>77.5</ele><time>2026-04-29T08:40:07.077Z</time></trkpt><trkpt lat="45.1934976" lon="9.1434963"><ele>77.33333333333334</ele><time>2026-04-29T08:40:08.076Z</time></trkpt><trkpt lat="45.1934173" lon="9.1435548"><ele>77.16666666666667</ele><time>2026-04-29T08:40:09.076Z</time></trkpt><trkpt lat="45.1933433" lon="9.1436051"><ele>77.0</ele><time>2026-04-29T08:40:10.077Z</time></trkpt><trkpt lat="45.1932692" lon="9.1436662"><ele>77.0</ele><time>2026-04-29T08:40:11.077Z</time></trkpt><trkpt lat="45.1932069" lon="9.1437364"><ele>77.0</ele><time>2026-04-29T08:40:12.077Z</time></trkpt><trkpt lat="45.1931386" lon="9.1437939"><ele>77.0</ele><time>2026-04-29T08:40:13.077Z</time></trkpt><trkpt lat="45.1930731" lon="9.143843"><ele>77.0</ele><time>2026-04-29T08:40:14.077Z</time></trkpt><trkpt lat="45.1930116" lon="9.1438896"><ele>77.0</ele><time>2026-04-29T08:40:15.077Z</time></trkpt><trkpt lat="45.1929089" lon="9.1439612"><ele>77.0</ele><time>2026-04-29T08:40:17.077Z</time></trkpt><trkpt lat="45.1928075" lon="9.1440246"><ele>78.0</ele><time>2026-04-29T08:40:19.076Z</time></trkpt><trkpt lat="45.1927288" lon="9.1440827"><ele>77.0</ele><time>2026-04-29T08:40:21.076Z</time></trkpt><trkpt lat="45.1926414" lon="9.1441545"><ele>77.0</ele><time>2026-04-29T08:40:23.077Z</time></trkpt><trkpt lat="45.1925686" lon="9.1442155"><ele>77.0</ele><time>2026-04-29T08:40:25.076Z</time></trkpt><trkpt lat="45.1925037" lon="9.1442597"><ele>77.0</ele><time>2026-04-29T08:40:27.076Z</time></trkpt><trkpt lat="45.192435" lon="9.1442676"><ele>77.0</ele><time>2026-04-29T08:41:07.076Z</time></trkpt></trkseg></trk></gpx>